AIC191 LIRF-KEWR
Flight info
| Callsign | AIC191 |
|---|---|
| Flight time | 8h 36m |
| Altitude | 36000 |
| Route | PODOX DCT TOBGA DCT DOBIM DCT PIGOS DCT BARSO DCT OKTET DCT GIPNO DCT BULOL DCT IDAVO DCT BAGBI DCT SIZZA DCT LAULY DCT BRY DCT CLM DCT KOPOR DCT VESAN DCT RATUK DCT SOVAT DCT LESTA UP6 RODOL UL28 PENIL DCT REVNU DCT RESNO/M083F360 DCT 55N020W 55N030W 5430N04000W 5330N05000W DCT PELTU/N0487F360 N598E TAFFY/N0472F380 DCT KJOHN DCT HANAA FLOSI4 |
| Aircraft | B77W/H-SDE1E2E3FGHIJ2J3J4J5M1RWXY/LB1D1 |
Departure
| Time | 2026-05-05 00:10 |
|---|---|
| Airport | Rome–Fiumicino Leonardo da Vinci International Airport (LIRF) |
Arrival
| Time | 2026-05-05 08:46 |
|---|---|
| Airport | Newark Liberty International Airport (KEWR) |
| Time | Latitude | Longitude | Altitude | Speed | Heading |
|---|---|---|---|---|---|
| 2026-05-04 23:37 | 41.79181 | 12.24249 | 19 ft | 0 kts | 70° |
| 2026-05-04 23:58 | 41.79177 | 12.24236 | 22 ft | 2 kts | 70° |
| 2026-05-04 23:58 | 41.79171 | 12.24216 | 22 ft | 2 kts | 70° |
| 2026-05-04 23:58 | 41.79166 | 12.24194 | 23 ft | 2 kts | 70° |
| 2026-05-04 23:59 | 41.79160 | 12.24174 | 20 ft | 2 kts | 70° |
| 2026-05-04 23:59 | 41.79154 | 12.24153 | 19 ft | 2 kts | 70° |
| 2026-05-04 23:59 | 41.79145 | 12.24136 | 23 ft | 2 kts | 7° |
| 2026-05-04 23:59 | 41.79129 | 12.24134 | 22 ft | 2 kts | 351° |
| 2026-05-05 00:00 | 41.79115 | 12.24144 | 19 ft | 2 kts | 320° |
| 2026-05-05 00:00 | 41.79111 | 12.24149 | 20 ft | 2 kts | 320° |
| 2026-05-05 00:00 | 41.79089 | 12.24163 | 19 ft | 0 kts | 343° |
| 2026-05-05 00:01 | 41.79134 | 12.24144 | 19 ft | 17 kts | 343° |
| 2026-05-05 00:01 | 41.79243 | 12.24089 | 19 ft | 14 kts | 321° |
| 2026-05-05 00:01 | 41.79260 | 12.23996 | 19 ft | 10 kts | 276° |
| 2026-05-05 00:02 | 41.79302 | 12.23920 | 20 ft | 16 kts | 326° |
| 2026-05-05 00:02 | 41.79462 | 12.23844 | 19 ft | 28 kts | 342° |
| 2026-05-05 00:02 | 41.79646 | 12.23763 | 19 ft | 28 kts | 342° |
| 2026-05-05 00:02 | 41.79809 | 12.23696 | 19 ft | 13 kts | 343° |
| 2026-05-05 00:03 | 41.79891 | 12.23706 | 19 ft | 13 kts | 40° |
| 2026-05-05 00:03 | 41.79939 | 12.23841 | 18 ft | 26 kts | 69° |
| 2026-05-05 00:03 | 41.79992 | 12.24083 | 19 ft | 26 kts | 73° |
| 2026-05-05 00:03 | 41.80052 | 12.24313 | 18 ft | 26 kts | 71° |
| 2026-05-05 00:04 | 41.80112 | 12.24540 | 18 ft | 24 kts | 68° |
| 2026-05-05 00:04 | 41.80175 | 12.24753 | 19 ft | 24 kts | 68° |
| 2026-05-05 00:04 | 41.80205 | 12.24973 | 18 ft | 24 kts | 89° |
| 2026-05-05 00:04 | 41.80244 | 12.25207 | 18 ft | 30 kts | 71° |
| 2026-05-05 00:05 | 41.80312 | 12.25456 | 20 ft | 28 kts | 70° |
| 2026-05-05 00:05 | 41.80378 | 12.25696 | 21 ft | 28 kts | 69° |
| 2026-05-05 00:05 | 41.80445 | 12.25939 | 20 ft | 28 kts | 70° |
| 2026-05-05 00:05 | 41.80485 | 12.26086 | 20 ft | 10 kts | 70° |
| 2026-05-05 00:06 | 41.80509 | 12.26174 | 22 ft | 10 kts | 70° |
| 2026-05-05 00:06 | 41.80534 | 12.26266 | 23 ft | 15 kts | 70° |
| 2026-05-05 00:06 | 41.80577 | 12.26426 | 22 ft | 19 kts | 70° |
| 2026-05-05 00:06 | 41.80622 | 12.26590 | 21 ft | 19 kts | 69° |
| 2026-05-05 00:07 | 41.80667 | 12.26754 | 19 ft | 19 kts | 69° |
| 2026-05-05 00:07 | 41.80698 | 12.26863 | 18 ft | 19 kts | 70° |
| 2026-05-05 00:07 | 41.80754 | 12.27010 | 18 ft | 9 kts | 42° |
| 2026-05-05 00:07 | 41.80811 | 12.27028 | 18 ft | 9 kts | 354° |
| 2026-05-05 00:08 | 41.80872 | 12.27009 | 18 ft | 9 kts | 342° |
| 2026-05-05 00:08 | 41.80931 | 12.26981 | 18 ft | 9 kts | 337° |
| 2026-05-05 00:08 | 41.80955 | 12.26916 | 17 ft | 8 kts | 256° |
| 2026-05-05 00:08 | 41.80951 | 12.26899 | 18 ft | 0 kts | 251° |
| 2026-05-05 00:09 | 41.80903 | 12.26716 | 18 ft | 55 kts | 249° |
| 2026-05-05 00:09 | 41.80681 | 12.25925 | 24 ft | 126 kts | 249° |
| 2026-05-05 00:09 | 41.80289 | 12.24512 | 22 ft | 185 kts | 249° |
| 2026-05-05 00:09 | 41.79805 | 12.22814 | 337 ft | 203 kts | 249° |
| 2026-05-05 00:10 | 41.79312 | 12.20973 | 972 ft | 205 kts | 252° |
| 2026-05-05 00:10 | 41.79185 | 12.19126 | 1828 ft | 201 kts | 269° |
| 2026-05-05 00:10 | 41.79215 | 12.17206 | 2106 ft | 219 kts | 265° |
| 2026-05-05 00:10 | 41.79167 | 12.15044 | 2367 ft | 246 kts | 265° |
| 2026-05-05 00:11 | 41.79106 | 12.12694 | 2974 ft | 254 kts | 264° |
| 2026-05-05 00:11 | 41.79042 | 12.10280 | 3673 ft | 262 kts | 265° |
| 2026-05-05 00:11 | 41.79014 | 12.07824 | 4563 ft | 261 kts | 266° |
| 2026-05-05 00:11 | 41.79014 | 12.05373 | 5363 ft | 264 kts | 267° |
| 2026-05-05 00:12 | 41.79015 | 12.02908 | 6164 ft | 265 kts | 267° |
| 2026-05-05 00:12 | 41.79014 | 12.00458 | 6981 ft | 265 kts | 268° |
| 2026-05-05 00:12 | 41.79012 | 11.97967 | 7679 ft | 269 kts | 268° |
| 2026-05-05 00:12 | 41.79008 | 11.95430 | 8417 ft | 271 kts | 268° |
| 2026-05-05 00:13 | 41.79002 | 11.92850 | 9149 ft | 274 kts | 268° |
| 2026-05-05 00:13 | 41.78995 | 11.90311 | 9885 ft | 276 kts | 268° |
| 2026-05-05 00:13 | 41.78986 | 11.87732 | 10510 ft | 282 kts | 268° |
| 2026-05-05 00:13 | 41.79006 | 11.85013 | 10701 ft | 302 kts | 274° |
| 2026-05-05 00:14 | 41.79657 | 11.82272 | 10842 ft | 325 kts | 298° |
| 2026-05-05 00:14 | 41.80813 | 11.79937 | 10975 ft | 341 kts | 301° |
| 2026-05-05 00:14 | 41.82121 | 11.77146 | 11235 ft | 361 kts | 298° |
| 2026-05-05 00:14 | 41.83417 | 11.74218 | 11864 ft | 371 kts | 298° |
| 2026-05-05 00:15 | 41.84745 | 11.71193 | 12715 ft | 376 kts | 298° |
| 2026-05-05 00:15 | 41.86074 | 11.68176 | 13646 ft | 380 kts | 298° |
| 2026-05-05 00:15 | 41.87424 | 11.65117 | 14449 ft | 386 kts | 298° |
| 2026-05-05 00:15 | 41.88816 | 11.61962 | 15241 ft | 391 kts | 298° |
| 2026-05-05 00:16 | 41.90235 | 11.58828 | 16023 ft | 394 kts | 302° |
| 2026-05-05 00:16 | 41.91960 | 11.55912 | 16652 ft | 406 kts | 309° |
| 2026-05-05 00:16 | 41.93917 | 11.53163 | 17406 ft | 412 kts | 312° |
| 2026-05-05 00:16 | 41.95985 | 11.50407 | 18200 ft | 416 kts | 313° |
| 2026-05-05 00:17 | 41.98040 | 11.47665 | 18900 ft | 421 kts | 312° |
| 2026-05-05 00:17 | 42.00118 | 11.44843 | 19636 ft | 423 kts | 311° |
| 2026-05-05 00:17 | 42.02170 | 11.42004 | 20387 ft | 425 kts | 311° |
| 2026-05-05 00:17 | 42.04225 | 11.39119 | 21103 ft | 428 kts | 310° |
| 2026-05-05 00:18 | 42.06275 | 11.36214 | 21794 ft | 431 kts | 310° |
| 2026-05-05 00:18 | 42.08347 | 11.33264 | 22464 ft | 435 kts | 310° |
| 2026-05-05 00:18 | 42.10445 | 11.30269 | 23135 ft | 438 kts | 310° |
| 2026-05-05 00:18 | 42.12536 | 11.27281 | 23775 ft | 441 kts | 310° |
| 2026-05-05 00:19 | 42.14646 | 11.24265 | 24345 ft | 444 kts | 310° |
| 2026-05-05 00:19 | 42.16769 | 11.21227 | 24940 ft | 445 kts | 309° |
| 2026-05-05 00:19 | 42.18895 | 11.18183 | 25503 ft | 447 kts | 309° |
| 2026-05-05 00:19 | 42.21040 | 11.15109 | 26076 ft | 449 kts | 309° |
| 2026-05-05 00:20 | 42.23180 | 11.12039 | 26585 ft | 452 kts | 309° |
| 2026-05-05 00:20 | 42.25349 | 11.08923 | 27083 ft | 455 kts | 309° |
| 2026-05-05 00:20 | 42.27503 | 11.05825 | 27575 ft | 457 kts | 309° |
| 2026-05-05 00:20 | 42.29694 | 11.02672 | 28050 ft | 460 kts | 309° |
| 2026-05-05 00:21 | 42.31898 | 10.99496 | 28511 ft | 462 kts | 309° |
| 2026-05-05 00:21 | 42.34107 | 10.96310 | 28939 ft | 465 kts | 309° |
| 2026-05-05 00:21 | 42.36320 | 10.93112 | 29333 ft | 467 kts | 309° |
| 2026-05-05 00:21 | 42.38425 | 10.89731 | 29711 ft | 466 kts | 303° |
| 2026-05-05 00:22 | 42.40280 | 10.86161 | 30190 ft | 464 kts | 300° |
| 2026-05-05 00:22 | 42.42041 | 10.82494 | 30692 ft | 460 kts | 298° |
| 2026-05-05 00:22 | 42.43748 | 10.78878 | 31252 ft | 457 kts | 298° |
| 2026-05-05 00:22 | 42.45480 | 10.75249 | 31731 ft | 454 kts | 298° |
| 2026-05-05 00:23 | 42.47188 | 10.71729 | 32186 ft | 453 kts | 299° |
| 2026-05-05 00:23 | 42.48938 | 10.68173 | 32611 ft | 452 kts | 299° |
| 2026-05-05 00:23 | 42.50693 | 10.64638 | 33010 ft | 451 kts | 299° |
| 2026-05-05 00:23 | 42.52474 | 10.61065 | 33430 ft | 450 kts | 299° |
| 2026-05-05 00:24 | 42.54198 | 10.57610 | 33798 ft | 449 kts | 298° |
| 2026-05-05 00:24 | 42.55960 | 10.54076 | 34002 ft | 452 kts | 298° |
| 2026-05-05 00:24 | 42.57151 | 10.51681 | 34021 ft | 454 kts | 298° |
| 2026-05-05 00:25 | 42.60781 | 10.44374 | 34028 ft | 451 kts | 298° |
| 2026-05-05 00:25 | 42.64251 | 10.37373 | 34042 ft | 449 kts | 298° |
| 2026-05-05 00:26 | 42.67749 | 10.30290 | 34036 ft | 451 kts | 298° |
| 2026-05-05 00:26 | 42.71258 | 10.23168 | 34028 ft | 452 kts | 298° |
| 2026-05-05 00:27 | 42.74750 | 10.16064 | 34027 ft | 452 kts | 298° |
| 2026-05-05 00:27 | 42.78246 | 10.08940 | 34024 ft | 453 kts | 298° |
| 2026-05-05 00:28 | 42.81733 | 10.01816 | 34080 ft | 453 kts | 298° |
| 2026-05-05 00:28 | 42.83487 | 9.98223 | 34352 ft | 453 kts | 298° |
| 2026-05-05 00:28 | 42.85231 | 9.94650 | 34736 ft | 450 kts | 298° |
| 2026-05-05 00:28 | 42.86954 | 9.91117 | 35100 ft | 448 kts | 298° |
| 2026-05-05 00:29 | 42.88671 | 9.87591 | 35414 ft | 447 kts | 298° |
| 2026-05-05 00:29 | 42.90427 | 9.84065 | 35671 ft | 448 kts | 300° |
| 2026-05-05 00:29 | 42.92280 | 9.80655 | 35916 ft | 450 kts | 301° |
| 2026-05-05 00:30 | 42.95754 | 9.73551 | 36002 ft | 445 kts | 292° |
| 2026-05-05 00:30 | 42.98132 | 9.65796 | 36007 ft | 441 kts | 287° |
| 2026-05-05 00:31 | 43.00366 | 9.58039 | 36005 ft | 441 kts | 287° |
| 2026-05-05 00:31 | 43.02654 | 9.50206 | 36005 ft | 441 kts | 287° |
| 2026-05-05 00:32 | 43.04930 | 9.42400 | 35999 ft | 441 kts | 287° |
| 2026-05-05 00:32 | 43.07185 | 9.34634 | 35998 ft | 442 kts | 287° |
| 2026-05-05 00:33 | 43.09447 | 9.26817 | 36000 ft | 442 kts | 287° |
| 2026-05-05 00:33 | 43.11707 | 9.18980 | 35988 ft | 442 kts | 287° |
| 2026-05-05 00:34 | 43.13961 | 9.11137 | 35989 ft | 443 kts | 287° |
| 2026-05-05 00:34 | 43.16217 | 9.03263 | 35998 ft | 444 kts | 287° |
| 2026-05-05 00:35 | 43.18468 | 8.95383 | 35994 ft | 445 kts | 287° |
| 2026-05-05 00:35 | 43.20715 | 8.87494 | 35993 ft | 445 kts | 287° |
| 2026-05-05 00:36 | 43.22962 | 8.79579 | 35990 ft | 445 kts | 287° |
| 2026-05-05 00:36 | 43.25211 | 8.71631 | 35989 ft | 446 kts | 287° |
| 2026-05-05 00:37 | 43.27446 | 8.63708 | 35993 ft | 447 kts | 287° |
| 2026-05-05 00:37 | 43.29313 | 8.57070 | 35992 ft | 447 kts | 286° |
| 2026-05-05 00:38 | 43.31930 | 8.47735 | 35989 ft | 448 kts | 286° |
| 2026-05-05 00:38 | 43.33792 | 8.41071 | 35985 ft | 449 kts | 286° |
| 2026-05-05 00:39 | 43.36023 | 8.33065 | 35985 ft | 450 kts | 286° |
| 2026-05-05 00:39 | 43.38256 | 8.25023 | 35987 ft | 450 kts | 286° |
| 2026-05-05 00:40 | 43.40492 | 8.16944 | 35986 ft | 451 kts | 286° |
| 2026-05-05 00:40 | 43.42719 | 8.08875 | 35981 ft | 452 kts | 286° |
| 2026-05-05 00:41 | 43.44936 | 8.00810 | 35984 ft | 453 kts | 286° |
| 2026-05-05 00:41 | 43.47172 | 7.92652 | 35980 ft | 453 kts | 286° |
| 2026-05-05 00:42 | 43.49397 | 7.84507 | 35984 ft | 454 kts | 286° |
| 2026-05-05 00:42 | 43.51606 | 7.76396 | 35982 ft | 455 kts | 286° |
| 2026-05-05 00:43 | 43.53819 | 7.68239 | 35982 ft | 455 kts | 286° |
| 2026-05-05 00:43 | 43.56035 | 7.60045 | 35986 ft | 456 kts | 286° |
| 2026-05-05 00:44 | 43.58173 | 7.52114 | 35990 ft | 456 kts | 286° |
| 2026-05-05 00:44 | 43.60385 | 7.43888 | 35995 ft | 458 kts | 286° |
| 2026-05-05 00:44 | 43.61751 | 7.39909 | 35987 ft | 465 kts | 297° |
| 2026-05-05 00:45 | 43.63739 | 7.36324 | 36003 ft | 473 kts | 308° |
| 2026-05-05 00:45 | 43.66174 | 7.33236 | 36002 ft | 481 kts | 319° |
| 2026-05-05 00:45 | 43.69030 | 7.30626 | 36007 ft | 485 kts | 323° |
| 2026-05-05 00:46 | 43.74693 | 7.25616 | 36002 ft | 486 kts | 322° |
| 2026-05-05 00:46 | 43.80357 | 7.20485 | 35999 ft | 486 kts | 322° |
| 2026-05-05 00:47 | 43.85995 | 7.15305 | 36007 ft | 486 kts | 321° |
| 2026-05-05 00:47 | 43.91617 | 7.10120 | 36004 ft | 486 kts | 321° |
| 2026-05-05 00:48 | 43.97253 | 7.04914 | 36021 ft | 486 kts | 321° |
| 2026-05-05 00:48 | 44.02870 | 6.99713 | 36013 ft | 486 kts | 321° |
| 2026-05-05 00:49 | 44.08516 | 6.94474 | 36004 ft | 487 kts | 321° |
| 2026-05-05 00:49 | 44.14195 | 6.89194 | 36007 ft | 488 kts | 321° |
| 2026-05-05 00:50 | 44.19854 | 6.83917 | 36006 ft | 489 kts | 321° |
| 2026-05-05 00:50 | 44.25500 | 6.78640 | 36032 ft | 488 kts | 321° |
| 2026-05-05 00:51 | 44.31141 | 6.73351 | 35994 ft | 488 kts | 321° |
| 2026-05-05 00:51 | 44.36784 | 6.68049 | 35990 ft | 489 kts | 321° |
| 2026-05-05 00:52 | 44.42396 | 6.62764 | 36007 ft | 490 kts | 321° |
| 2026-05-05 00:52 | 44.48046 | 6.57433 | 35987 ft | 489 kts | 321° |
| 2026-05-05 00:53 | 44.53545 | 6.52229 | 35996 ft | 488 kts | 321° |
| 2026-05-05 00:53 | 44.59230 | 6.46831 | 35991 ft | 489 kts | 321° |
| 2026-05-05 00:54 | 44.64806 | 6.41525 | 35984 ft | 489 kts | 321° |
| 2026-05-05 00:54 | 44.70457 | 6.36129 | 35990 ft | 490 kts | 321° |
| 2026-05-05 00:55 | 44.76096 | 6.30740 | 35994 ft | 490 kts | 321° |
| 2026-05-05 00:55 | 44.81731 | 6.25340 | 35970 ft | 490 kts | 321° |
| 2026-05-05 00:56 | 44.87375 | 6.19916 | 35970 ft | 491 kts | 321° |
| 2026-05-05 00:56 | 44.93004 | 6.14494 | 35972 ft | 491 kts | 321° |
| 2026-05-05 00:57 | 44.98642 | 6.09052 | 35957 ft | 489 kts | 321° |
| 2026-05-05 00:57 | 45.04289 | 6.03582 | 35932 ft | 491 kts | 320° |
| 2026-05-05 00:58 | 45.09929 | 5.98110 | 35967 ft | 491 kts | 320° |
| 2026-05-05 00:58 | 45.15549 | 5.92648 | 35937 ft | 492 kts | 320° |
| 2026-05-05 00:59 | 45.21173 | 5.87164 | 35932 ft | 490 kts | 320° |
| 2026-05-05 00:59 | 45.26794 | 5.81670 | 35938 ft | 489 kts | 320° |
| 2026-05-05 01:00 | 45.32381 | 5.76189 | 35957 ft | 489 kts | 321° |
| 2026-05-05 01:00 | 45.37999 | 5.70675 | 35939 ft | 491 kts | 320° |
| 2026-05-05 01:01 | 45.43610 | 5.65153 | 35943 ft | 490 kts | 320° |
| 2026-05-05 01:01 | 45.49257 | 5.59578 | 35947 ft | 489 kts | 320° |
| 2026-05-05 01:02 | 45.54846 | 5.54047 | 35944 ft | 489 kts | 320° |
| 2026-05-05 01:02 | 45.60501 | 5.48679 | 35943 ft | 492 kts | 323° |
| 2026-05-05 01:03 | 45.66364 | 5.43560 | 35944 ft | 493 kts | 324° |
| 2026-05-05 01:03 | 45.72259 | 5.38381 | 35946 ft | 494 kts | 323° |
| 2026-05-05 01:04 | 45.78104 | 5.33153 | 35948 ft | 495 kts | 323° |
| 2026-05-05 01:04 | 45.86819 | 5.25298 | 35944 ft | 497 kts | 323° |
| 2026-05-05 01:05 | 45.92680 | 5.20005 | 35947 ft | 497 kts | 323° |
| 2026-05-05 01:05 | 45.98534 | 5.14707 | 35944 ft | 498 kts | 323° |
| 2026-05-05 01:06 | 46.04432 | 5.09415 | 35941 ft | 500 kts | 326° |
| 2026-05-05 01:06 | 46.10789 | 5.05157 | 35944 ft | 504 kts | 333° |
| 2026-05-05 01:07 | 46.17234 | 5.01171 | 35942 ft | 505 kts | 332° |
| 2026-05-05 01:07 | 46.23668 | 4.97067 | 35942 ft | 505 kts | 332° |
| 2026-05-05 01:08 | 46.29034 | 4.93627 | 35935 ft | 505 kts | 332° |
| 2026-05-05 01:08 | 46.35457 | 4.89505 | 35933 ft | 506 kts | 332° |
| 2026-05-05 01:09 | 46.41892 | 4.85365 | 35931 ft | 506 kts | 332° |
| 2026-05-05 01:09 | 46.48329 | 4.81212 | 35927 ft | 505 kts | 332° |
| 2026-05-05 01:10 | 46.54779 | 4.77040 | 35925 ft | 506 kts | 332° |
| 2026-05-05 01:10 | 46.61212 | 4.72868 | 35927 ft | 506 kts | 332° |
| 2026-05-05 01:11 | 46.67614 | 4.68704 | 35928 ft | 506 kts | 332° |
| 2026-05-05 01:11 | 46.74059 | 4.64501 | 35927 ft | 507 kts | 332° |
| 2026-05-05 01:12 | 46.80514 | 4.60282 | 35926 ft | 507 kts | 332° |
| 2026-05-05 01:12 | 46.86951 | 4.56084 | 35925 ft | 508 kts | 332° |
| 2026-05-05 01:13 | 46.93421 | 4.51878 | 35921 ft | 508 kts | 332° |
| 2026-05-05 01:13 | 46.99864 | 4.47676 | 35918 ft | 507 kts | 332° |
| 2026-05-05 01:14 | 47.06303 | 4.43461 | 35918 ft | 507 kts | 332° |
| 2026-05-05 01:14 | 47.12759 | 4.39221 | 35915 ft | 507 kts | 332° |
| 2026-05-05 01:15 | 47.19188 | 4.34988 | 35910 ft | 506 kts | 332° |
| 2026-05-05 01:15 | 47.25603 | 4.30754 | 35917 ft | 506 kts | 332° |
| 2026-05-05 01:16 | 47.32032 | 4.26499 | 35893 ft | 506 kts | 332° |
| 2026-05-05 01:16 | 47.38458 | 4.22233 | 35900 ft | 505 kts | 332° |
| 2026-05-05 01:17 | 47.44855 | 4.17976 | 35915 ft | 504 kts | 332° |
| 2026-05-05 01:17 | 47.51262 | 4.13701 | 35893 ft | 504 kts | 332° |
| 2026-05-05 01:18 | 47.57666 | 4.09421 | 35895 ft | 504 kts | 332° |
| 2026-05-05 01:18 | 47.64074 | 4.05140 | 35889 ft | 503 kts | 332° |
| 2026-05-05 01:19 | 47.70439 | 4.00877 | 35899 ft | 503 kts | 332° |
| 2026-05-05 01:19 | 47.76845 | 3.96572 | 35894 ft | 503 kts | 332° |
| 2026-05-05 01:20 | 47.83222 | 3.92275 | 35890 ft | 503 kts | 332° |
| 2026-05-05 01:20 | 47.89547 | 3.88000 | 35897 ft | 502 kts | 332° |
| 2026-05-05 01:21 | 47.95945 | 3.83664 | 35887 ft | 501 kts | 332° |
| 2026-05-05 01:21 | 48.02301 | 3.79345 | 35886 ft | 501 kts | 332° |
| 2026-05-05 01:22 | 48.08625 | 3.75037 | 35889 ft | 500 kts | 332° |
| 2026-05-05 01:22 | 48.14745 | 3.70176 | 35883 ft | 494 kts | 321° |
| 2026-05-05 01:23 | 48.19953 | 3.63561 | 35882 ft | 487 kts | 308° |
| 2026-05-05 01:23 | 48.24479 | 3.56038 | 35892 ft | 487 kts | 308° |
| 2026-05-05 01:24 | 48.29067 | 3.48508 | 35883 ft | 487 kts | 308° |
| 2026-05-05 01:24 | 48.33633 | 3.41071 | 35885 ft | 486 kts | 308° |
| 2026-05-05 01:25 | 48.38254 | 3.33638 | 35878 ft | 488 kts | 313° |
| 2026-05-05 01:25 | 48.43768 | 3.27578 | 35893 ft | 496 kts | 327° |
| 2026-05-05 01:26 | 48.50139 | 3.23329 | 35891 ft | 501 kts | 335° |
| 2026-05-05 01:26 | 48.56597 | 3.19336 | 35895 ft | 501 kts | 334° |
| 2026-05-05 01:27 | 48.63027 | 3.15250 | 35896 ft | 500 kts | 334° |
| 2026-05-05 01:27 | 48.69465 | 3.11108 | 35904 ft | 500 kts | 334° |
| 2026-05-05 01:28 | 48.75825 | 3.07007 | 35894 ft | 500 kts | 334° |
| 2026-05-05 01:28 | 48.82275 | 3.02843 | 35900 ft | 500 kts | 334° |
| 2026-05-05 01:29 | 48.88482 | 2.98169 | 35901 ft | 496 kts | 326° |
| 2026-05-05 01:29 | 48.89865 | 2.96946 | 35908 ft | 496 kts | 326° |
| 2026-05-05 01:30 | 48.95798 | 2.91607 | 35905 ft | 496 kts | 326° |
| 2026-05-05 01:30 | 49.01767 | 2.86279 | 35906 ft | 496 kts | 326° |
| 2026-05-05 01:31 | 49.07747 | 2.80998 | 35905 ft | 496 kts | 326° |
| 2026-05-05 01:31 | 49.13721 | 2.75729 | 35911 ft | 495 kts | 326° |
| 2026-05-05 01:32 | 49.19709 | 2.70430 | 35915 ft | 494 kts | 326° |
| 2026-05-05 01:32 | 49.25667 | 2.65137 | 35909 ft | 494 kts | 326° |
| 2026-05-05 01:33 | 49.31600 | 2.59851 | 35894 ft | 494 kts | 326° |
| 2026-05-05 01:33 | 49.37560 | 2.54526 | 35924 ft | 494 kts | 326° |
| 2026-05-05 01:34 | 49.43480 | 2.49221 | 35933 ft | 495 kts | 326° |
| 2026-05-05 01:34 | 49.49464 | 2.43903 | 35924 ft | 495 kts | 329° |
| 2026-05-05 01:35 | 49.55828 | 2.39897 | 35926 ft | 499 kts | 341° |
| 2026-05-05 01:35 | 49.62548 | 2.36971 | 35925 ft | 499 kts | 341° |
| 2026-05-05 01:36 | 49.69198 | 2.34022 | 35934 ft | 499 kts | 341° |
| 2026-05-05 01:36 | 49.74775 | 2.31494 | 35929 ft | 499 kts | 341° |
| 2026-05-05 01:37 | 49.82525 | 2.27947 | 35938 ft | 498 kts | 341° |
| 2026-05-05 01:37 | 49.88088 | 2.25392 | 35942 ft | 498 kts | 341° |
| 2026-05-05 01:38 | 49.94747 | 2.22329 | 35946 ft | 497 kts | 341° |
| 2026-05-05 01:38 | 50.01345 | 2.19287 | 35946 ft | 497 kts | 341° |
| 2026-05-05 01:39 | 50.08013 | 2.16205 | 35956 ft | 496 kts | 341° |
| 2026-05-05 01:39 | 50.14625 | 2.13138 | 35953 ft | 496 kts | 341° |
| 2026-05-05 01:40 | 50.21227 | 2.10067 | 35956 ft | 495 kts | 341° |
| 2026-05-05 01:40 | 50.27838 | 2.06984 | 35966 ft | 494 kts | 341° |
| 2026-05-05 01:41 | 50.34389 | 2.03709 | 35956 ft | 491 kts | 334° |
| 2026-05-05 01:41 | 50.40263 | 1.98487 | 35977 ft | 485 kts | 320° |
| 2026-05-05 01:42 | 50.45386 | 1.91582 | 35978 ft | 483 kts | 315° |
| 2026-05-05 01:42 | 50.50417 | 1.84598 | 35966 ft | 483 kts | 315° |
| 2026-05-05 01:43 | 50.55487 | 1.77642 | 35966 ft | 483 kts | 316° |
| 2026-05-05 01:43 | 50.60558 | 1.70686 | 35968 ft | 483 kts | 316° |
| 2026-05-05 01:44 | 50.65625 | 1.63710 | 35968 ft | 482 kts | 316° |
| 2026-05-05 01:44 | 50.70675 | 1.56728 | 35973 ft | 482 kts | 316° |
| 2026-05-05 01:45 | 50.75695 | 1.49769 | 35976 ft | 482 kts | 316° |
| 2026-05-05 01:45 | 50.80858 | 1.42948 | 35981 ft | 483 kts | 319° |
| 2026-05-05 01:46 | 50.86211 | 1.36420 | 35990 ft | 482 kts | 320° |
| 2026-05-05 01:46 | 50.91498 | 1.29995 | 35995 ft | 482 kts | 320° |
| 2026-05-05 01:47 | 50.96792 | 1.23497 | 35993 ft | 481 kts | 320° |
| 2026-05-05 01:47 | 51.02134 | 1.16890 | 35996 ft | 481 kts | 320° |
| 2026-05-05 01:48 | 51.07371 | 1.10387 | 35992 ft | 481 kts | 319° |
| 2026-05-05 01:48 | 51.12641 | 1.03827 | 35994 ft | 481 kts | 320° |
| 2026-05-05 01:49 | 51.17902 | 0.97258 | 36000 ft | 481 kts | 320° |
| 2026-05-05 01:49 | 51.23165 | 0.90668 | 36003 ft | 481 kts | 320° |
| 2026-05-05 01:50 | 51.28419 | 0.84070 | 36013 ft | 480 kts | 320° |
| 2026-05-05 01:50 | 51.33718 | 0.77395 | 36013 ft | 480 kts | 320° |
| 2026-05-05 01:51 | 51.38954 | 0.70780 | 36016 ft | 480 kts | 320° |
| 2026-05-05 01:51 | 51.44186 | 0.64150 | 36016 ft | 480 kts | 320° |
| 2026-05-05 01:52 | 51.49384 | 0.57543 | 36021 ft | 479 kts | 320° |
| 2026-05-05 01:52 | 51.54628 | 0.50858 | 36020 ft | 479 kts | 320° |
| 2026-05-05 01:53 | 51.59816 | 0.44224 | 36019 ft | 479 kts | 320° |
| 2026-05-05 01:53 | 51.65021 | 0.37548 | 36021 ft | 479 kts | 320° |
| 2026-05-05 01:54 | 51.70241 | 0.30833 | 36022 ft | 479 kts | 320° |
| 2026-05-05 01:54 | 51.75439 | 0.24126 | 36023 ft | 480 kts | 320° |
| 2026-05-05 01:55 | 51.80655 | 0.17376 | 36024 ft | 480 kts | 320° |
| 2026-05-05 01:55 | 51.85890 | 0.10579 | 36021 ft | 480 kts | 320° |
| 2026-05-05 01:56 | 51.91080 | 0.03820 | 36023 ft | 480 kts | 320° |
| 2026-05-05 01:56 | 51.96335 | -0.03045 | 36024 ft | 480 kts | 320° |
| 2026-05-05 01:57 | 52.01525 | -0.09845 | 36026 ft | 479 kts | 320° |
| 2026-05-05 01:57 | 52.06680 | -0.16621 | 36030 ft | 479 kts | 320° |
| 2026-05-05 01:58 | 52.11886 | -0.23484 | 36033 ft | 479 kts | 320° |
| 2026-05-05 01:58 | 52.17077 | -0.30349 | 36034 ft | 479 kts | 320° |
| 2026-05-05 01:59 | 52.22239 | -0.37197 | 36039 ft | 479 kts | 320° |
| 2026-05-05 01:59 | 52.27388 | -0.44048 | 36038 ft | 478 kts | 321° |
| 2026-05-05 02:00 | 52.32564 | -0.50957 | 36028 ft | 478 kts | 321° |
| 2026-05-05 02:00 | 52.37669 | -0.57793 | 36031 ft | 477 kts | 321° |
| 2026-05-05 02:01 | 52.42843 | -0.64743 | 36031 ft | 477 kts | 321° |
| 2026-05-05 02:01 | 52.47958 | -0.71635 | 36025 ft | 476 kts | 321° |
| 2026-05-05 02:02 | 52.53097 | -0.78580 | 36029 ft | 477 kts | 321° |
| 2026-05-05 02:02 | 52.58204 | -0.85505 | 36026 ft | 477 kts | 321° |
| 2026-05-05 02:03 | 52.62458 | -0.91290 | 36029 ft | 477 kts | 321° |
| 2026-05-05 02:03 | 52.67572 | -0.98264 | 36031 ft | 477 kts | 321° |
| 2026-05-05 02:04 | 52.72690 | -1.05263 | 36028 ft | 477 kts | 321° |
| 2026-05-05 02:04 | 52.77630 | -1.12576 | 36024 ft | 478 kts | 317° |
| 2026-05-05 02:05 | 52.82438 | -1.20185 | 36020 ft | 478 kts | 317° |
| 2026-05-05 02:05 | 52.87258 | -1.27821 | 36021 ft | 478 kts | 317° |
| 2026-05-05 02:06 | 52.92060 | -1.35404 | 36021 ft | 478 kts | 317° |
| 2026-05-05 02:06 | 52.96890 | -1.43042 | 36028 ft | 478 kts | 317° |
| 2026-05-05 02:07 | 53.01685 | -1.50653 | 36033 ft | 477 kts | 317° |
| 2026-05-05 02:07 | 53.06481 | -1.58290 | 36039 ft | 476 kts | 316° |
| 2026-05-05 02:08 | 53.11261 | -1.65944 | 36052 ft | 476 kts | 316° |
| 2026-05-05 02:08 | 53.15977 | -1.73545 | 36056 ft | 475 kts | 316° |
| 2026-05-05 02:09 | 53.20737 | -1.81256 | 36060 ft | 474 kts | 315° |
| 2026-05-05 02:09 | 53.24796 | -1.89833 | 36057 ft | 473 kts | 303° |
| 2026-05-05 02:10 | 53.27850 | -1.99557 | 36060 ft | 473 kts | 296° |
| 2026-05-05 02:10 | 53.30728 | -2.09419 | 36054 ft | 473 kts | 296° |
| 2026-05-05 02:11 | 53.33677 | -2.19357 | 36049 ft | 473 kts | 296° |
| 2026-05-05 02:11 | 53.36399 | -2.29322 | 36037 ft | 473 kts | 289° |
| 2026-05-05 02:12 | 53.39333 | -2.45096 | 36048 ft | 473 kts | 288° |
| 2026-05-05 02:13 | 53.41319 | -2.55659 | 36054 ft | 472 kts | 288° |
| 2026-05-05 02:13 | 53.43297 | -2.66119 | 36054 ft | 472 kts | 288° |
| 2026-05-05 02:14 | 53.45278 | -2.76653 | 36050 ft | 471 kts | 288° |
| 2026-05-05 02:14 | 53.47235 | -2.87117 | 36051 ft | 471 kts | 288° |
| 2026-05-05 02:15 | 53.49183 | -2.97643 | 36050 ft | 470 kts | 287° |
| 2026-05-05 02:15 | 53.51097 | -3.08136 | 36055 ft | 469 kts | 287° |
| 2026-05-05 02:16 | 53.53001 | -3.18627 | 36057 ft | 469 kts | 287° |
| 2026-05-05 02:16 | 53.54886 | -3.29058 | 36060 ft | 469 kts | 287° |
| 2026-05-05 02:17 | 53.56789 | -3.39640 | 36066 ft | 469 kts | 287° |
| 2026-05-05 02:17 | 53.58661 | -3.50083 | 36065 ft | 468 kts | 287° |
| 2026-05-05 02:18 | 53.60563 | -3.60616 | 36065 ft | 467 kts | 287° |
| 2026-05-05 02:18 | 53.62401 | -3.71030 | 36067 ft | 467 kts | 286° |
| 2026-05-05 02:19 | 53.64100 | -3.81612 | 36071 ft | 467 kts | 285° |
| 2026-05-05 02:19 | 53.65760 | -3.92202 | 36068 ft | 468 kts | 285° |
| 2026-05-05 02:20 | 53.67435 | -4.02847 | 36072 ft | 469 kts | 285° |
| 2026-05-05 02:20 | 53.69115 | -4.13512 | 36068 ft | 470 kts | 285° |
| 2026-05-05 02:21 | 53.70795 | -4.24223 | 36071 ft | 469 kts | 285° |
| 2026-05-05 02:21 | 53.72455 | -4.34868 | 36071 ft | 467 kts | 285° |
| 2026-05-05 02:22 | 53.74099 | -4.45491 | 36076 ft | 466 kts | 285° |
| 2026-05-05 02:22 | 53.75730 | -4.56092 | 36077 ft | 467 kts | 285° |
| 2026-05-05 02:23 | 53.77344 | -4.66661 | 36078 ft | 468 kts | 284° |
| 2026-05-05 02:23 | 53.78966 | -4.77348 | 36079 ft | 468 kts | 284° |
| 2026-05-05 02:24 | 53.80570 | -4.87986 | 36082 ft | 467 kts | 284° |
| 2026-05-05 02:24 | 53.82167 | -4.98646 | 36080 ft | 467 kts | 284° |
| 2026-05-05 02:25 | 53.83762 | -5.09371 | 36082 ft | 466 kts | 284° |
| 2026-05-05 02:25 | 53.85326 | -5.19951 | 36082 ft | 466 kts | 284° |
| 2026-05-05 02:26 | 53.86890 | -5.30608 | 36081 ft | 465 kts | 284° |
| 2026-05-05 02:26 | 53.88459 | -5.41369 | 36084 ft | 465 kts | 284° |
| 2026-05-05 02:27 | 53.89996 | -5.51986 | 36082 ft | 465 kts | 284° |
| 2026-05-05 02:27 | 53.91523 | -5.62602 | 36087 ft | 465 kts | 284° |
| 2026-05-05 02:28 | 53.93043 | -5.73246 | 36083 ft | 464 kts | 283° |
| 2026-05-05 02:28 | 53.94557 | -5.83923 | 36085 ft | 464 kts | 283° |
| 2026-05-05 02:29 | 53.96056 | -5.94567 | 36088 ft | 464 kts | 283° |
| 2026-05-05 02:29 | 53.97548 | -6.05239 | 36092 ft | 463 kts | 283° |
| 2026-05-05 02:30 | 53.99037 | -6.15963 | 36092 ft | 463 kts | 283° |
| 2026-05-05 02:30 | 54.00506 | -6.26614 | 36091 ft | 463 kts | 283° |
| 2026-05-05 02:31 | 54.01955 | -6.37202 | 36096 ft | 462 kts | 283° |
| 2026-05-05 02:31 | 54.03403 | -6.47853 | 36095 ft | 462 kts | 283° |
| 2026-05-05 02:32 | 54.04844 | -6.58530 | 36100 ft | 461 kts | 283° |
| 2026-05-05 02:32 | 54.06268 | -6.69158 | 36098 ft | 461 kts | 283° |
| 2026-05-05 02:33 | 54.07684 | -6.79812 | 36101 ft | 461 kts | 282° |
| 2026-05-05 02:33 | 54.09091 | -6.90466 | 36105 ft | 461 kts | 282° |
| 2026-05-05 02:34 | 54.10490 | -7.01143 | 36102 ft | 460 kts | 282° |
| 2026-05-05 02:34 | 54.11876 | -7.11798 | 36107 ft | 460 kts | 282° |
| 2026-05-05 02:35 | 54.13248 | -7.22425 | 36108 ft | 460 kts | 282° |
| 2026-05-05 02:35 | 54.14397 | -7.31389 | 36108 ft | 460 kts | 282° |
| 2026-05-05 02:36 | 54.15756 | -7.42059 | 36107 ft | 460 kts | 282° |
| 2026-05-05 02:36 | 54.17105 | -7.52734 | 36112 ft | 460 kts | 282° |
| 2026-05-05 02:37 | 54.18433 | -7.63327 | 36110 ft | 459 kts | 282° |
| 2026-05-05 02:37 | 54.19761 | -7.73998 | 36104 ft | 459 kts | 282° |
| 2026-05-05 02:38 | 54.21076 | -7.84651 | 36112 ft | 459 kts | 282° |
| 2026-05-05 02:38 | 54.22390 | -7.95374 | 36115 ft | 459 kts | 282° |
| 2026-05-05 02:39 | 54.23688 | -8.06056 | 36113 ft | 459 kts | 282° |
| 2026-05-05 02:39 | 54.24978 | -8.16751 | 36115 ft | 459 kts | 281° |
| 2026-05-05 02:40 | 54.26263 | -8.27497 | 36111 ft | 459 kts | 281° |
| 2026-05-05 02:40 | 54.27524 | -8.38121 | 36112 ft | 459 kts | 281° |
| 2026-05-05 02:41 | 54.28787 | -8.48858 | 36115 ft | 459 kts | 281° |
| 2026-05-05 02:41 | 54.30036 | -8.59549 | 36114 ft | 459 kts | 281° |
| 2026-05-05 02:42 | 54.31283 | -8.70320 | 36117 ft | 459 kts | 281° |
| 2026-05-05 02:42 | 54.32515 | -8.81045 | 36117 ft | 459 kts | 281° |
| 2026-05-05 02:43 | 54.33732 | -8.91734 | 36118 ft | 459 kts | 281° |
| 2026-05-05 02:43 | 54.34943 | -9.02455 | 36119 ft | 459 kts | 281° |
| 2026-05-05 02:44 | 54.36150 | -9.13244 | 36125 ft | 459 kts | 281° |
| 2026-05-05 02:44 | 54.37344 | -9.23996 | 36124 ft | 460 kts | 281° |
| 2026-05-05 02:45 | 54.38533 | -9.34796 | 36126 ft | 459 kts | 281° |
| 2026-05-05 02:45 | 54.39707 | -9.45556 | 36128 ft | 459 kts | 281° |
| 2026-05-05 02:46 | 54.40872 | -9.56326 | 36128 ft | 459 kts | 280° |
| 2026-05-05 02:46 | 54.42029 | -9.67123 | 36128 ft | 460 kts | 280° |
| 2026-05-05 02:47 | 54.43178 | -9.77935 | 36131 ft | 459 kts | 280° |
| 2026-05-05 02:47 | 54.44313 | -9.88714 | 36132 ft | 460 kts | 280° |
| 2026-05-05 02:48 | 54.45441 | -9.99521 | 36135 ft | 459 kts | 280° |
| 2026-05-05 02:48 | 54.46565 | -10.10369 | 36133 ft | 459 kts | 280° |
| 2026-05-05 02:49 | 54.47817 | -10.21136 | 36134 ft | 460 kts | 283° |
| 2026-05-05 02:49 | 54.49258 | -10.31868 | 36140 ft | 460 kts | 283° |
| 2026-05-05 02:50 | 54.50690 | -10.42629 | 36138 ft | 460 kts | 283° |
| 2026-05-05 02:50 | 54.52069 | -10.53305 | 36142 ft | 460 kts | 283° |
| 2026-05-05 02:51 | 54.53433 | -10.64065 | 36143 ft | 460 kts | 283° |
| 2026-05-05 02:51 | 54.54785 | -10.74844 | 36143 ft | 460 kts | 283° |
| 2026-05-05 02:52 | 54.56136 | -10.85687 | 36144 ft | 460 kts | 283° |
| 2026-05-05 02:52 | 54.57238 | -10.94587 | 36144 ft | 460 kts | 282° |
| 2026-05-05 02:53 | 54.58562 | -11.05363 | 36145 ft | 460 kts | 282° |
| 2026-05-05 02:53 | 54.59884 | -11.16197 | 36149 ft | 460 kts | 282° |
| 2026-05-05 02:54 | 54.61185 | -11.26957 | 36152 ft | 459 kts | 282° |
| 2026-05-05 02:54 | 54.62480 | -11.37743 | 36158 ft | 459 kts | 282° |
| 2026-05-05 02:55 | 54.63773 | -11.48603 | 36156 ft | 459 kts | 282° |
| 2026-05-05 02:55 | 54.65049 | -11.59412 | 36159 ft | 459 kts | 282° |
| 2026-05-05 02:56 | 54.66309 | -11.70171 | 36157 ft | 460 kts | 282° |
| 2026-05-05 02:56 | 54.67570 | -11.81024 | 36160 ft | 459 kts | 282° |
| 2026-05-05 02:57 | 54.68817 | -11.91847 | 36164 ft | 459 kts | 282° |
| 2026-05-05 02:57 | 54.70053 | -12.02670 | 36165 ft | 459 kts | 282° |
| 2026-05-05 02:58 | 54.71275 | -12.13462 | 36167 ft | 459 kts | 282° |
| 2026-05-05 02:58 | 54.72500 | -12.24367 | 36170 ft | 459 kts | 282° |
| 2026-05-05 02:59 | 54.73708 | -12.35213 | 36170 ft | 459 kts | 281° |
| 2026-05-05 02:59 | 54.74905 | -12.46063 | 36168 ft | 459 kts | 281° |
| 2026-05-05 03:00 | 54.76090 | -12.56883 | 36167 ft | 458 kts | 281° |
| 2026-05-05 03:00 | 54.77270 | -12.67763 | 36176 ft | 458 kts | 281° |
| 2026-05-05 03:01 | 54.78430 | -12.78555 | 36183 ft | 458 kts | 281° |
| 2026-05-05 03:01 | 54.79595 | -12.89485 | 36174 ft | 458 kts | 281° |
| 2026-05-05 03:02 | 54.80734 | -13.00270 | 36181 ft | 458 kts | 281° |
| 2026-05-05 03:02 | 54.81873 | -13.11153 | 36183 ft | 458 kts | 281° |
| 2026-05-05 03:03 | 54.83004 | -13.22052 | 36187 ft | 458 kts | 281° |
| 2026-05-05 03:03 | 54.84121 | -13.32920 | 36187 ft | 458 kts | 281° |
| 2026-05-05 03:04 | 54.85224 | -13.43761 | 36187 ft | 457 kts | 281° |
| 2026-05-05 03:04 | 54.86321 | -13.54638 | 36189 ft | 458 kts | 281° |
| 2026-05-05 03:05 | 54.87411 | -13.65540 | 36192 ft | 458 kts | 280° |
| 2026-05-05 03:05 | 54.88492 | -13.76467 | 36193 ft | 458 kts | 280° |
| 2026-05-05 03:06 | 54.89561 | -13.87375 | 36195 ft | 458 kts | 280° |
| 2026-05-05 03:06 | 54.90623 | -13.98315 | 36196 ft | 458 kts | 280° |
| 2026-05-05 03:07 | 54.91670 | -14.09206 | 36202 ft | 458 kts | 280° |
| 2026-05-05 03:07 | 54.92711 | -14.20137 | 36201 ft | 458 kts | 279° |
| 2026-05-05 03:08 | 54.93743 | -14.31094 | 36202 ft | 459 kts | 279° |
| 2026-05-05 03:08 | 54.94767 | -14.42066 | 36201 ft | 459 kts | 279° |
| 2026-05-05 03:09 | 54.95778 | -14.53020 | 36207 ft | 459 kts | 279° |
| 2026-05-05 03:09 | 54.96611 | -14.62123 | 36209 ft | 459 kts | 279° |
| 2026-05-05 03:10 | 54.97610 | -14.73144 | 36211 ft | 459 kts | 279° |
| 2026-05-05 03:10 | 54.98593 | -14.84109 | 36208 ft | 459 kts | 279° |
| 2026-05-05 03:11 | 54.99568 | -14.95078 | 36212 ft | 459 kts | 279° |
| 2026-05-05 03:11 | 55.00227 | -15.06148 | 36217 ft | 459 kts | 272° |
| 2026-05-05 03:12 | 55.00392 | -15.17283 | 36216 ft | 459 kts | 272° |
| 2026-05-05 03:12 | 55.00556 | -15.28337 | 36219 ft | 459 kts | 272° |
| 2026-05-05 03:13 | 55.00740 | -15.39493 | 36216 ft | 459 kts | 272° |
| 2026-05-05 03:13 | 55.00926 | -15.50574 | 36220 ft | 458 kts | 272° |
| 2026-05-05 03:14 | 55.01105 | -15.61742 | 36224 ft | 458 kts | 272° |
| 2026-05-05 03:14 | 55.01271 | -15.72778 | 36223 ft | 458 kts | 272° |
| 2026-05-05 03:15 | 55.01427 | -15.83841 | 36225 ft | 458 kts | 272° |
| 2026-05-05 03:15 | 55.01573 | -15.94917 | 36225 ft | 457 kts | 272° |
| 2026-05-05 03:16 | 55.01710 | -16.06055 | 36229 ft | 457 kts | 272° |
| 2026-05-05 03:16 | 55.01835 | -16.17129 | 36230 ft | 457 kts | 272° |
| 2026-05-05 03:17 | 55.01951 | -16.28193 | 36231 ft | 457 kts | 271° |
| 2026-05-05 03:17 | 55.02056 | -16.39243 | 36231 ft | 456 kts | 271° |
| 2026-05-05 03:18 | 55.02152 | -16.50333 | 36233 ft | 456 kts | 271° |
| 2026-05-05 03:18 | 55.02237 | -16.61362 | 36233 ft | 455 kts | 271° |
| 2026-05-05 03:19 | 55.02346 | -16.77893 | 36234 ft | 455 kts | 271° |
| 2026-05-05 03:19 | 55.02406 | -16.88947 | 36237 ft | 455 kts | 271° |
| 2026-05-05 03:20 | 55.02457 | -16.99973 | 36234 ft | 455 kts | 271° |
| 2026-05-05 03:20 | 55.02497 | -17.10969 | 36238 ft | 455 kts | 271° |
| 2026-05-05 03:21 | 55.02527 | -17.21998 | 36239 ft | 455 kts | 271° |
| 2026-05-05 03:21 | 55.02547 | -17.33025 | 36242 ft | 454 kts | 271° |
| 2026-05-05 03:22 | 55.02558 | -17.44031 | 36247 ft | 454 kts | 270° |
| 2026-05-05 03:22 | 55.02558 | -17.55069 | 36239 ft | 455 kts | 270° |
| 2026-05-05 03:23 | 55.02549 | -17.66082 | 36247 ft | 454 kts | 270° |
| 2026-05-05 03:23 | 55.02529 | -17.77135 | 36243 ft | 454 kts | 270° |
| 2026-05-05 03:24 | 55.02500 | -17.88180 | 36244 ft | 454 kts | 270° |
| 2026-05-05 03:24 | 55.02460 | -17.99193 | 36246 ft | 454 kts | 270° |
| 2026-05-05 03:25 | 55.02411 | -18.10146 | 36250 ft | 454 kts | 270° |
| 2026-05-05 03:25 | 55.02352 | -18.21134 | 36247 ft | 454 kts | 270° |
| 2026-05-05 03:26 | 55.02283 | -18.32172 | 36251 ft | 454 kts | 270° |
| 2026-05-05 03:26 | 55.02204 | -18.43162 | 36251 ft | 454 kts | 270° |
| 2026-05-05 03:27 | 55.02115 | -18.54183 | 36253 ft | 454 kts | 269° |
| 2026-05-05 03:27 | 55.02016 | -18.65187 | 36250 ft | 454 kts | 269° |
| 2026-05-05 03:28 | 55.01907 | -18.76219 | 36252 ft | 454 kts | 269° |
| 2026-05-05 03:28 | 55.01788 | -18.87204 | 36258 ft | 454 kts | 269° |
| 2026-05-05 03:29 | 55.01660 | -18.98186 | 36257 ft | 454 kts | 269° |
| 2026-05-05 03:29 | 55.01521 | -19.09203 | 36255 ft | 454 kts | 269° |
| 2026-05-05 03:30 | 55.01373 | -19.20201 | 36257 ft | 454 kts | 269° |
| 2026-05-05 03:30 | 55.01214 | -19.31213 | 36260 ft | 454 kts | 269° |
| 2026-05-05 03:31 | 55.01045 | -19.42226 | 36260 ft | 454 kts | 269° |
| 2026-05-05 03:31 | 55.00868 | -19.53205 | 36265 ft | 454 kts | 269° |
| 2026-05-05 03:32 | 55.00687 | -19.63757 | 36265 ft | 454 kts | 269° |
| 2026-05-05 03:32 | 55.00490 | -19.74741 | 36266 ft | 454 kts | 268° |
| 2026-05-05 03:33 | 55.00283 | -19.85764 | 36267 ft | 454 kts | 268° |
| 2026-05-05 03:33 | 55.00067 | -19.96758 | 36268 ft | 454 kts | 268° |
| 2026-05-05 03:34 | 55.00214 | -20.07751 | 36272 ft | 454 kts | 274° |
| 2026-05-05 03:34 | 55.00697 | -20.18706 | 36269 ft | 454 kts | 274° |
| 2026-05-05 03:35 | 55.01165 | -20.29658 | 36272 ft | 454 kts | 274° |
| 2026-05-05 03:35 | 55.01601 | -20.40676 | 36273 ft | 454 kts | 274° |
| 2026-05-05 03:36 | 55.02013 | -20.51687 | 36274 ft | 454 kts | 274° |
| 2026-05-05 03:36 | 55.02410 | -20.62631 | 36275 ft | 454 kts | 274° |
| 2026-05-05 03:37 | 55.02798 | -20.73612 | 36275 ft | 454 kts | 273° |
| 2026-05-05 03:37 | 55.03178 | -20.84598 | 36278 ft | 455 kts | 273° |
| 2026-05-05 03:38 | 55.03549 | -20.95613 | 36280 ft | 455 kts | 273° |
| 2026-05-05 03:38 | 55.03911 | -21.06671 | 36280 ft | 455 kts | 273° |
| 2026-05-05 03:39 | 55.04262 | -21.17704 | 36282 ft | 455 kts | 273° |
| 2026-05-05 03:39 | 55.04603 | -21.28726 | 36284 ft | 455 kts | 273° |
| 2026-05-05 03:40 | 55.04933 | -21.39744 | 36283 ft | 455 kts | 273° |
| 2026-05-05 03:40 | 55.05253 | -21.50728 | 36283 ft | 456 kts | 273° |
| 2026-05-05 03:41 | 55.05565 | -21.61778 | 36284 ft | 456 kts | 273° |
| 2026-05-05 03:41 | 55.05867 | -21.72844 | 36290 ft | 456 kts | 272° |
| 2026-05-05 03:42 | 55.06111 | -21.82059 | 36289 ft | 456 kts | 272° |
| 2026-05-05 03:42 | 55.06394 | -21.93108 | 36288 ft | 456 kts | 272° |
| 2026-05-05 03:43 | 55.06668 | -22.04194 | 36289 ft | 457 kts | 272° |
| 2026-05-05 03:43 | 55.06931 | -22.15270 | 36287 ft | 457 kts | 272° |
| 2026-05-05 03:44 | 55.07187 | -22.26434 | 36290 ft | 457 kts | 272° |
| 2026-05-05 03:44 | 55.07429 | -22.37451 | 36292 ft | 458 kts | 272° |
| 2026-05-05 03:45 | 55.07663 | -22.48560 | 36292 ft | 458 kts | 272° |
| 2026-05-05 03:45 | 55.07887 | -22.59689 | 36294 ft | 458 kts | 272° |
| 2026-05-05 03:46 | 55.08079 | -22.69646 | 36294 ft | 458 kts | 272° |
| 2026-05-05 03:46 | 55.08284 | -22.80773 | 36298 ft | 459 kts | 272° |
| 2026-05-05 03:47 | 55.08397 | -22.87155 | 36297 ft | 459 kts | 272° |
| 2026-05-05 03:47 | 55.08562 | -22.96852 | 36298 ft | 459 kts | 272° |
| 2026-05-05 03:48 | 55.08743 | -23.08021 | 36301 ft | 460 kts | 272° |
| 2026-05-05 03:48 | 55.08915 | -23.19258 | 36296 ft | 460 kts | 272° |
| 2026-05-05 03:49 | 55.09056 | -23.29022 | 36299 ft | 460 kts | 272° |
| 2026-05-05 03:49 | 55.09207 | -23.40163 | 36302 ft | 460 kts | 272° |
| 2026-05-05 03:50 | 55.09348 | -23.51370 | 36303 ft | 461 kts | 272° |
| 2026-05-05 03:50 | 55.09480 | -23.62556 | 36301 ft | 461 kts | 271° |
| 2026-05-05 03:51 | 55.09601 | -23.73779 | 36304 ft | 462 kts | 271° |
| 2026-05-05 03:51 | 55.09639 | -23.77513 | 36305 ft | 462 kts | 271° |
| 2026-05-05 03:52 | 55.09724 | -23.86377 | 36304 ft | 462 kts | 271° |
| 2026-05-05 03:52 | 55.09813 | -23.96296 | 36306 ft | 462 kts | 271° |
| 2026-05-05 03:53 | 55.09911 | -24.08596 | 36307 ft | 463 kts | 271° |
| 2026-05-05 03:53 | 55.09953 | -24.14404 | 36307 ft | 463 kts | 271° |
| 2026-05-05 03:54 | 55.10027 | -24.25695 | 36306 ft | 463 kts | 271° |
| 2026-05-05 03:54 | 55.10092 | -24.37204 | 36307 ft | 464 kts | 271° |
| 2026-05-05 03:55 | 55.10143 | -24.48077 | 36309 ft | 464 kts | 271° |
| 2026-05-05 03:55 | 55.10186 | -24.59386 | 36309 ft | 464 kts | 271° |
| 2026-05-05 03:56 | 55.10218 | -24.70795 | 36310 ft | 465 kts | 271° |
| 2026-05-05 03:56 | 55.10240 | -24.82052 | 36312 ft | 465 kts | 271° |
| 2026-05-05 03:57 | 55.10250 | -24.91008 | 36314 ft | 465 kts | 271° |
| 2026-05-05 03:57 | 55.10253 | -25.02416 | 36317 ft | 465 kts | 271° |
| 2026-05-05 03:58 | 55.10252 | -25.06145 | 36313 ft | 465 kts | 271° |
| 2026-05-05 03:59 | 55.10247 | -25.12108 | 36314 ft | 465 kts | 271° |
| 2026-05-05 03:59 | 55.10231 | -25.23363 | 36317 ft | 466 kts | 271° |
| 2026-05-05 04:00 | 55.10204 | -25.34733 | 36339 ft | 465 kts | 271° |
| 2026-05-05 04:00 | 55.10167 | -25.46048 | 36331 ft | 465 kts | 271° |
| 2026-05-05 04:01 | 55.10118 | -25.57535 | 36339 ft | 467 kts | 271° |
| 2026-05-05 04:01 | 55.10059 | -25.68813 | 36315 ft | 467 kts | 271° |
| 2026-05-05 04:02 | 55.09990 | -25.80139 | 36325 ft | 467 kts | 271° |
| 2026-05-05 04:02 | 55.09910 | -25.91498 | 36315 ft | 467 kts | 271° |
| 2026-05-05 04:03 | 55.09819 | -26.02926 | 36328 ft | 467 kts | 270° |
| 2026-05-05 04:03 | 55.09719 | -26.14235 | 36325 ft | 467 kts | 270° |
| 2026-05-05 04:04 | 55.09608 | -26.25554 | 36329 ft | 467 kts | 270° |
| 2026-05-05 04:04 | 55.09485 | -26.36951 | 36319 ft | 467 kts | 270° |
| 2026-05-05 04:05 | 55.09353 | -26.48271 | 36337 ft | 467 kts | 270° |
| 2026-05-05 04:05 | 55.09209 | -26.59633 | 36322 ft | 467 kts | 270° |
| 2026-05-05 04:06 | 55.09056 | -26.70957 | 36332 ft | 467 kts | 270° |
| 2026-05-05 04:06 | 55.08892 | -26.82290 | 36334 ft | 467 kts | 270° |
| 2026-05-05 04:07 | 55.08716 | -26.93712 | 36335 ft | 466 kts | 270° |
| 2026-05-05 04:07 | 55.08532 | -27.04981 | 36333 ft | 466 kts | 270° |
| 2026-05-05 04:08 | 55.08337 | -27.16302 | 36337 ft | 466 kts | 270° |
| 2026-05-05 04:08 | 55.08131 | -27.27602 | 36339 ft | 466 kts | 270° |
| 2026-05-05 04:09 | 55.07915 | -27.38881 | 36341 ft | 465 kts | 270° |
| 2026-05-05 04:09 | 55.07689 | -27.50166 | 36344 ft | 465 kts | 270° |
| 2026-05-05 04:10 | 55.07452 | -27.61454 | 36343 ft | 464 kts | 270° |
| 2026-05-05 04:10 | 55.07205 | -27.72733 | 36346 ft | 464 kts | 270° |
| 2026-05-05 04:11 | 55.06949 | -27.83989 | 36347 ft | 463 kts | 269° |
| 2026-05-05 04:11 | 55.06684 | -27.95143 | 36343 ft | 463 kts | 269° |
| 2026-05-05 04:12 | 55.06407 | -28.06383 | 36348 ft | 463 kts | 269° |
| 2026-05-05 04:12 | 55.06118 | -28.17667 | 36346 ft | 462 kts | 269° |
| 2026-05-05 04:13 | 55.05822 | -28.28829 | 36354 ft | 462 kts | 269° |
| 2026-05-05 04:13 | 55.05514 | -28.40033 | 36363 ft | 461 kts | 269° |
| 2026-05-05 04:14 | 55.05198 | -28.51202 | 36358 ft | 461 kts | 269° |
| 2026-05-05 04:14 | 55.04871 | -28.62368 | 36357 ft | 461 kts | 269° |
| 2026-05-05 04:15 | 55.04533 | -28.73571 | 36368 ft | 461 kts | 269° |
| 2026-05-05 04:15 | 55.04186 | -28.84701 | 36354 ft | 460 kts | 269° |
| 2026-05-05 04:16 | 55.03827 | -28.95907 | 36357 ft | 460 kts | 269° |
| 2026-05-05 04:16 | 55.03461 | -29.07035 | 36367 ft | 460 kts | 269° |
| 2026-05-05 04:17 | 55.03083 | -29.18175 | 36363 ft | 459 kts | 268° |
| 2026-05-05 04:17 | 55.02699 | -29.29220 | 36363 ft | 459 kts | 268° |
| 2026-05-05 04:18 | 55.02301 | -29.40372 | 36368 ft | 459 kts | 268° |
| 2026-05-05 04:18 | 55.01896 | -29.51443 | 36362 ft | 459 kts | 268° |
| 2026-05-05 04:19 | 55.01479 | -29.62551 | 36364 ft | 459 kts | 268° |
| 2026-05-05 04:19 | 55.01051 | -29.73693 | 36367 ft | 459 kts | 268° |
| 2026-05-05 04:20 | 55.00613 | -29.84810 | 36366 ft | 459 kts | 268° |
| 2026-05-05 04:20 | 55.00169 | -29.95887 | 36371 ft | 459 kts | 268° |
| 2026-05-05 04:21 | 54.99895 | -30.06912 | 36372 ft | 458 kts | 271° |
| 2026-05-05 04:21 | 54.99803 | -30.18044 | 36374 ft | 457 kts | 271° |
| 2026-05-05 04:22 | 54.99706 | -30.29138 | 36369 ft | 458 kts | 271° |
| 2026-05-05 04:22 | 54.99608 | -30.38344 | 36368 ft | 457 kts | 271° |
| 2026-05-05 04:23 | 54.99475 | -30.49436 | 36370 ft | 457 kts | 271° |
| 2026-05-05 04:23 | 54.99330 | -30.60508 | 36368 ft | 457 kts | 271° |
| 2026-05-05 04:24 | 54.99175 | -30.71599 | 36370 ft | 457 kts | 270° |
| 2026-05-05 04:25 | 54.98925 | -30.88190 | 36365 ft | 457 kts | 270° |
| 2026-05-05 04:25 | 54.98744 | -30.99333 | 36365 ft | 457 kts | 270° |
| 2026-05-05 04:26 | 54.98554 | -31.10417 | 36368 ft | 456 kts | 270° |
| 2026-05-05 04:26 | 54.98354 | -31.21466 | 36366 ft | 456 kts | 270° |
| 2026-05-05 04:27 | 54.98146 | -31.32435 | 36361 ft | 456 kts | 270° |
| 2026-05-05 04:27 | 54.97927 | -31.43466 | 36360 ft | 456 kts | 270° |
| 2026-05-05 04:28 | 54.97698 | -31.54500 | 36362 ft | 456 kts | 270° |
| 2026-05-05 04:28 | 54.97459 | -31.65518 | 36356 ft | 456 kts | 270° |
| 2026-05-05 04:29 | 54.97211 | -31.76538 | 36359 ft | 455 kts | 270° |
| 2026-05-05 04:29 | 54.96952 | -31.87563 | 36354 ft | 455 kts | 270° |
| 2026-05-05 04:30 | 54.96683 | -31.98551 | 36357 ft | 455 kts | 270° |
| 2026-05-05 04:30 | 54.96405 | -32.09558 | 36350 ft | 455 kts | 270° |
| 2026-05-05 04:31 | 54.96116 | -32.20597 | 36355 ft | 454 kts | 269° |
| 2026-05-05 04:31 | 54.95819 | -32.31540 | 36352 ft | 454 kts | 269° |
| 2026-05-05 04:32 | 54.95511 | -32.42521 | 36354 ft | 453 kts | 269° |
| 2026-05-05 04:32 | 54.95192 | -32.53546 | 36349 ft | 453 kts | 269° |
| 2026-05-05 04:33 | 54.94865 | -32.64512 | 36348 ft | 453 kts | 269° |
| 2026-05-05 04:33 | 54.94531 | -32.75398 | 36344 ft | 453 kts | 269° |
| 2026-05-05 04:34 | 54.94185 | -32.86322 | 36350 ft | 452 kts | 269° |
| 2026-05-05 04:34 | 54.93830 | -32.97235 | 36383 ft | 454 kts | 269° |
| 2026-05-05 04:34 | 54.93648 | -33.02748 | 36603 ft | 455 kts | 269° |
| 2026-05-05 04:35 | 54.93463 | -33.08234 | 36949 ft | 454 kts | 269° |
| 2026-05-05 04:35 | 54.93275 | -33.13730 | 37285 ft | 454 kts | 268° |
| 2026-05-05 04:35 | 54.93086 | -33.19195 | 37578 ft | 454 kts | 268° |
| 2026-05-05 04:35 | 54.92894 | -33.24679 | 37838 ft | 454 kts | 268° |
| 2026-05-05 04:36 | 54.92698 | -33.30210 | 38118 ft | 455 kts | 268° |
| 2026-05-05 04:36 | 54.92502 | -33.35666 | 38272 ft | 457 kts | 268° |
| 2026-05-05 04:36 | 54.92300 | -33.41207 | 38315 ft | 457 kts | 268° |
| 2026-05-05 04:37 | 54.91890 | -33.52268 | 38340 ft | 457 kts | 268° |
| 2026-05-05 04:37 | 54.91471 | -33.63273 | 38326 ft | 454 kts | 268° |
| 2026-05-05 04:38 | 54.91045 | -33.74229 | 38340 ft | 454 kts | 268° |
| 2026-05-05 04:38 | 54.90609 | -33.85177 | 38323 ft | 454 kts | 268° |
| 2026-05-05 04:39 | 54.90163 | -33.96144 | 38330 ft | 454 kts | 267° |
| 2026-05-05 04:39 | 54.89707 | -34.07109 | 38329 ft | 454 kts | 267° |
| 2026-05-05 04:40 | 54.89244 | -34.17983 | 38332 ft | 454 kts | 267° |
| 2026-05-05 04:40 | 54.88767 | -34.28968 | 38326 ft | 454 kts | 267° |
| 2026-05-05 04:41 | 54.88281 | -34.39921 | 38329 ft | 454 kts | 266° |
| 2026-05-05 04:41 | 54.87789 | -34.50803 | 38322 ft | 454 kts | 266° |
| 2026-05-05 04:42 | 54.87284 | -34.61732 | 38332 ft | 455 kts | 266° |
| 2026-05-05 04:42 | 54.87024 | -34.67261 | 38154 ft | 454 kts | 269° |
| 2026-05-05 04:42 | 54.86766 | -34.72691 | 38231 ft | 453 kts | 269° |
| 2026-05-05 04:43 | 54.86243 | -34.83595 | 38308 ft | 452 kts | 269° |
| 2026-05-05 04:43 | 54.85711 | -34.94510 | 38302 ft | 452 kts | 269° |
| 2026-05-05 04:44 | 54.85169 | -35.05382 | 38309 ft | 451 kts | 269° |
| 2026-05-05 04:44 | 54.84619 | -35.16226 | 38308 ft | 451 kts | 268° |
| 2026-05-05 04:45 | 54.84061 | -35.27052 | 38307 ft | 451 kts | 268° |
| 2026-05-05 04:45 | 54.83491 | -35.37906 | 38295 ft | 450 kts | 268° |
| 2026-05-05 04:46 | 54.82912 | -35.48748 | 38295 ft | 450 kts | 268° |
| 2026-05-05 04:46 | 54.82324 | -35.59556 | 38293 ft | 449 kts | 268° |
| 2026-05-05 04:47 | 54.81728 | -35.70356 | 38292 ft | 448 kts | 268° |
| 2026-05-05 04:47 | 54.81128 | -35.81033 | 38289 ft | 448 kts | 267° |
| 2026-05-05 04:48 | 54.80517 | -35.91755 | 38285 ft | 447 kts | 267° |
| 2026-05-05 04:48 | 54.79893 | -36.02520 | 38286 ft | 446 kts | 267° |
| 2026-05-05 04:49 | 54.79263 | -36.13229 | 38276 ft | 446 kts | 266° |
| 2026-05-05 04:49 | 54.78624 | -36.23931 | 38273 ft | 446 kts | 266° |
| 2026-05-05 04:50 | 54.77976 | -36.34618 | 38268 ft | 447 kts | 266° |
| 2026-05-05 04:50 | 54.77314 | -36.45383 | 38273 ft | 448 kts | 266° |
| 2026-05-05 04:51 | 54.76759 | -36.54288 | 38259 ft | 448 kts | 266° |
| 2026-05-05 04:51 | 54.76082 | -36.64994 | 38260 ft | 448 kts | 265° |
| 2026-05-05 04:52 | 54.75392 | -36.75767 | 38261 ft | 448 kts | 265° |
| 2026-05-05 04:52 | 54.74696 | -36.86474 | 38250 ft | 449 kts | 265° |
| 2026-05-05 04:53 | 54.73991 | -36.97179 | 38258 ft | 450 kts | 265° |
| 2026-05-05 04:53 | 54.73270 | -37.07969 | 38246 ft | 450 kts | 264° |
| 2026-05-05 04:54 | 54.72539 | -37.18759 | 38231 ft | 450 kts | 264° |
| 2026-05-05 04:54 | 54.71799 | -37.29534 | 38247 ft | 450 kts | 264° |
| 2026-05-05 04:55 | 54.71053 | -37.40276 | 38236 ft | 450 kts | 264° |
| 2026-05-05 04:55 | 54.70294 | -37.51053 | 38222 ft | 450 kts | 263° |
| 2026-05-05 04:56 | 54.69528 | -37.61774 | 38227 ft | 450 kts | 263° |
| 2026-05-05 04:56 | 54.68753 | -37.72502 | 38231 ft | 449 kts | 263° |
| 2026-05-05 04:57 | 54.67970 | -37.83194 | 38206 ft | 449 kts | 262° |
| 2026-05-05 04:57 | 54.67176 | -37.93928 | 38198 ft | 449 kts | 262° |
| 2026-05-05 04:58 | 54.66371 | -38.04659 | 38196 ft | 448 kts | 262° |
| 2026-05-05 04:58 | 54.65566 | -38.15257 | 38210 ft | 448 kts | 262° |
| 2026-05-05 04:59 | 54.64744 | -38.25959 | 38196 ft | 448 kts | 261° |
| 2026-05-05 04:59 | 54.63914 | -38.36639 | 38187 ft | 447 kts | 261° |
| 2026-05-05 05:00 | 54.63081 | -38.47232 | 38182 ft | 447 kts | 260° |
| 2026-05-05 05:00 | 54.62236 | -38.57862 | 38176 ft | 448 kts | 260° |
| 2026-05-05 05:01 | 54.61378 | -38.68517 | 38175 ft | 448 kts | 260° |
| 2026-05-05 05:01 | 54.60511 | -38.79170 | 38166 ft | 448 kts | 259° |
| 2026-05-05 05:02 | 54.59633 | -38.89844 | 38160 ft | 449 kts | 259° |
| 2026-05-05 05:02 | 54.58741 | -39.00554 | 38157 ft | 451 kts | 259° |
| 2026-05-05 05:03 | 54.57836 | -39.11311 | 38155 ft | 454 kts | 259° |
| 2026-05-05 05:03 | 54.56918 | -39.22107 | 38145 ft | 455 kts | 259° |
| 2026-05-05 05:04 | 54.55988 | -39.32926 | 38134 ft | 456 kts | 258° |
| 2026-05-05 05:04 | 54.55047 | -39.43759 | 38123 ft | 455 kts | 258° |
| 2026-05-05 05:05 | 54.54109 | -39.54449 | 38126 ft | 454 kts | 258° |
| 2026-05-05 05:05 | 54.53153 | -39.65217 | 38116 ft | 455 kts | 258° |
| 2026-05-05 05:06 | 54.52185 | -39.76010 | 38115 ft | 456 kts | 257° |
| 2026-05-05 05:06 | 54.51204 | -39.86851 | 38109 ft | 458 kts | 257° |
| 2026-05-05 05:07 | 54.50213 | -39.97690 | 38103 ft | 459 kts | 257° |
| 2026-05-05 05:07 | 54.49460 | -40.08650 | 38094 ft | 461 kts | 260° |
| 2026-05-05 05:08 | 54.48840 | -40.19658 | 38085 ft | 462 kts | 260° |
| 2026-05-05 05:08 | 54.48212 | -40.30615 | 38079 ft | 463 kts | 260° |
| 2026-05-05 05:09 | 54.47555 | -40.41703 | 38072 ft | 464 kts | 259° |
| 2026-05-05 05:09 | 54.46884 | -40.52769 | 38063 ft | 465 kts | 259° |
| 2026-05-05 05:10 | 54.46200 | -40.63837 | 38056 ft | 465 kts | 259° |
| 2026-05-05 05:10 | 54.45509 | -40.74876 | 38056 ft | 466 kts | 259° |
| 2026-05-05 05:11 | 54.44804 | -40.85965 | 38062 ft | 467 kts | 258° |
| 2026-05-05 05:11 | 54.44086 | -40.97107 | 38048 ft | 467 kts | 258° |
| 2026-05-05 05:12 | 54.43357 | -41.08250 | 38045 ft | 468 kts | 258° |
| 2026-05-05 05:12 | 54.42620 | -41.19361 | 38035 ft | 469 kts | 258° |
| 2026-05-05 05:13 | 54.41869 | -41.30507 | 38024 ft | 470 kts | 258° |
| 2026-05-05 05:13 | 54.41113 | -41.41585 | 38017 ft | 471 kts | 258° |
| 2026-05-05 05:14 | 54.40338 | -41.52781 | 38011 ft | 471 kts | 257° |
| 2026-05-05 05:14 | 54.39553 | -41.63978 | 38002 ft | 472 kts | 257° |
| 2026-05-05 05:15 | 54.38757 | -41.75180 | 37993 ft | 473 kts | 257° |
| 2026-05-05 05:15 | 54.37951 | -41.86357 | 37983 ft | 473 kts | 257° |
| 2026-05-05 05:16 | 54.37129 | -41.97621 | 37983 ft | 474 kts | 257° |
| 2026-05-05 05:16 | 54.36299 | -42.08844 | 37981 ft | 476 kts | 257° |
| 2026-05-05 05:17 | 54.35455 | -42.20100 | 37971 ft | 477 kts | 257° |
| 2026-05-05 05:17 | 54.34597 | -42.31410 | 37946 ft | 477 kts | 257° |
| 2026-05-05 05:18 | 54.33733 | -42.42668 | 37952 ft | 477 kts | 257° |
| 2026-05-05 05:18 | 54.32853 | -42.53974 | 37950 ft | 477 kts | 257° |
| 2026-05-05 05:19 | 54.31964 | -42.65254 | 37949 ft | 478 kts | 256° |
| 2026-05-05 05:19 | 54.31061 | -42.76568 | 37943 ft | 478 kts | 256° |
| 2026-05-05 05:20 | 54.30152 | -42.87827 | 37935 ft | 479 kts | 256° |
| 2026-05-05 05:20 | 54.29386 | -42.97219 | 37931 ft | 479 kts | 256° |
| 2026-05-05 05:21 | 54.28449 | -43.08576 | 37924 ft | 479 kts | 256° |
| 2026-05-05 05:21 | 54.27506 | -43.19881 | 37922 ft | 480 kts | 256° |
| 2026-05-05 05:22 | 54.26549 | -43.31206 | 37917 ft | 480 kts | 256° |
| 2026-05-05 05:22 | 54.25581 | -43.42546 | 37908 ft | 481 kts | 256° |
| 2026-05-05 05:23 | 54.24602 | -43.53868 | 37907 ft | 481 kts | 256° |
| 2026-05-05 05:23 | 54.23620 | -43.65114 | 37905 ft | 482 kts | 256° |
| 2026-05-05 05:24 | 54.22615 | -43.76484 | 37895 ft | 483 kts | 256° |
| 2026-05-05 05:24 | 54.21602 | -43.87815 | 37895 ft | 483 kts | 256° |
| 2026-05-05 05:25 | 54.20575 | -43.99195 | 37887 ft | 484 kts | 256° |
| 2026-05-05 05:25 | 54.19534 | -44.10594 | 37884 ft | 485 kts | 256° |
| 2026-05-05 05:26 | 54.18481 | -44.21997 | 37881 ft | 486 kts | 256° |
| 2026-05-05 05:26 | 54.17418 | -44.33394 | 37870 ft | 486 kts | 255° |
| 2026-05-05 05:27 | 54.16344 | -44.44785 | 37871 ft | 487 kts | 255° |
| 2026-05-05 05:27 | 54.14704 | -44.61950 | 37873 ft | 488 kts | 255° |
| 2026-05-05 05:28 | 54.13597 | -44.73384 | 37870 ft | 489 kts | 255° |
| 2026-05-05 05:28 | 54.12479 | -44.84822 | 37861 ft | 489 kts | 255° |
| 2026-05-05 05:29 | 54.11350 | -44.96253 | 37857 ft | 490 kts | 255° |
| 2026-05-05 05:29 | 54.10211 | -45.07662 | 37852 ft | 490 kts | 255° |
| 2026-05-05 05:30 | 54.09056 | -45.19124 | 37847 ft | 490 kts | 255° |
| 2026-05-05 05:30 | 54.07881 | -45.30672 | 37846 ft | 490 kts | 255° |
| 2026-05-05 05:31 | 54.06710 | -45.42063 | 37841 ft | 491 kts | 255° |
| 2026-05-05 05:31 | 54.05522 | -45.53502 | 37818 ft | 491 kts | 255° |
| 2026-05-05 05:32 | 54.04325 | -45.64923 | 37827 ft | 491 kts | 254° |
| 2026-05-05 05:32 | 54.03113 | -45.76379 | 37819 ft | 491 kts | 254° |
| 2026-05-05 05:33 | 54.01893 | -45.87792 | 37815 ft | 491 kts | 254° |
| 2026-05-05 05:33 | 54.00660 | -45.99222 | 37811 ft | 491 kts | 254° |
| 2026-05-05 05:34 | 53.99418 | -46.10636 | 37802 ft | 491 kts | 254° |
| 2026-05-05 05:34 | 53.98162 | -46.22064 | 37796 ft | 491 kts | 254° |
| 2026-05-05 05:35 | 53.96898 | -46.33460 | 37785 ft | 491 kts | 254° |
| 2026-05-05 05:35 | 53.95626 | -46.44827 | 37781 ft | 490 kts | 254° |
| 2026-05-05 05:36 | 53.94334 | -46.56263 | 37774 ft | 490 kts | 254° |
| 2026-05-05 05:36 | 53.93041 | -46.67614 | 37769 ft | 490 kts | 254° |
| 2026-05-05 05:37 | 53.91743 | -46.78904 | 37764 ft | 490 kts | 254° |
| 2026-05-05 05:37 | 53.90416 | -46.90345 | 37757 ft | 490 kts | 253° |
| 2026-05-05 05:38 | 53.89100 | -47.01591 | 37747 ft | 491 kts | 253° |
| 2026-05-05 05:38 | 53.87759 | -47.12959 | 37743 ft | 491 kts | 253° |
| 2026-05-05 05:39 | 53.86409 | -47.24300 | 37730 ft | 491 kts | 253° |
| 2026-05-05 05:39 | 53.85047 | -47.35647 | 37722 ft | 490 kts | 253° |
| 2026-05-05 05:40 | 53.83665 | -47.47059 | 37717 ft | 490 kts | 253° |
| 2026-05-05 05:40 | 53.82282 | -47.58390 | 37710 ft | 491 kts | 253° |
| 2026-05-05 05:41 | 53.80888 | -47.69713 | 37702 ft | 491 kts | 253° |
| 2026-05-05 05:41 | 53.79485 | -47.81017 | 37692 ft | 491 kts | 253° |
| 2026-05-05 05:42 | 53.78074 | -47.92289 | 37696 ft | 491 kts | 253° |
| 2026-05-05 05:42 | 53.76648 | -48.03589 | 37678 ft | 491 kts | 253° |
| 2026-05-05 05:43 | 53.75213 | -48.14870 | 37671 ft | 491 kts | 253° |
| 2026-05-05 05:43 | 53.73760 | -48.26201 | 37665 ft | 491 kts | 253° |
| 2026-05-05 05:44 | 53.72305 | -48.37454 | 37656 ft | 491 kts | 253° |
| 2026-05-05 05:44 | 53.70836 | -48.48731 | 37659 ft | 491 kts | 253° |
| 2026-05-05 05:45 | 53.69362 | -48.59954 | 37645 ft | 492 kts | 253° |
| 2026-05-05 05:45 | 53.67873 | -48.71206 | 37639 ft | 491 kts | 252° |
| 2026-05-05 05:46 | 53.66367 | -48.82500 | 37628 ft | 491 kts | 252° |
| 2026-05-05 05:46 | 53.64850 | -48.93784 | 37622 ft | 491 kts | 252° |
| 2026-05-05 05:47 | 53.63328 | -49.05023 | 37620 ft | 491 kts | 252° |
| 2026-05-05 05:47 | 53.61797 | -49.16240 | 37607 ft | 491 kts | 252° |
| 2026-05-05 05:48 | 53.60260 | -49.27418 | 37586 ft | 491 kts | 252° |
| 2026-05-05 05:48 | 53.58707 | -49.38623 | 37585 ft | 491 kts | 252° |
| 2026-05-05 05:49 | 53.57148 | -49.49795 | 37584 ft | 491 kts | 252° |
| 2026-05-05 05:49 | 53.55827 | -49.59194 | 37581 ft | 491 kts | 252° |
| 2026-05-05 05:50 | 53.54242 | -49.70394 | 37571 ft | 491 kts | 252° |
| 2026-05-05 05:50 | 53.52662 | -49.81488 | 37563 ft | 491 kts | 252° |
| 2026-05-05 05:51 | 53.51062 | -49.92651 | 37557 ft | 491 kts | 252° |
| 2026-05-05 05:51 | 53.49204 | -50.03719 | 37542 ft | 486 kts | 244° |
| 2026-05-05 05:52 | 53.46641 | -50.14107 | 37547 ft | 485 kts | 243° |
| 2026-05-05 05:52 | 53.44034 | -50.24613 | 37529 ft | 485 kts | 243° |
| 2026-05-05 05:53 | 53.41451 | -50.35113 | 37523 ft | 486 kts | 243° |
| 2026-05-05 05:53 | 53.38872 | -50.45614 | 37517 ft | 486 kts | 243° |
| 2026-05-05 05:54 | 53.36304 | -50.56032 | 37507 ft | 485 kts | 243° |
| 2026-05-05 05:54 | 53.33709 | -50.66502 | 37501 ft | 484 kts | 243° |
| 2026-05-05 05:55 | 53.31131 | -50.76849 | 37497 ft | 484 kts | 243° |
| 2026-05-05 05:55 | 53.28527 | -50.87252 | 37492 ft | 484 kts | 243° |
| 2026-05-05 05:56 | 53.25910 | -50.97656 | 37484 ft | 485 kts | 243° |
| 2026-05-05 05:56 | 53.23293 | -51.08011 | 37479 ft | 486 kts | 243° |
| 2026-05-05 05:57 | 53.20655 | -51.18412 | 37467 ft | 485 kts | 243° |
| 2026-05-05 05:57 | 53.18023 | -51.28737 | 37465 ft | 484 kts | 243° |
| 2026-05-05 05:58 | 53.15374 | -51.39074 | 37457 ft | 483 kts | 243° |
| 2026-05-05 05:58 | 53.12724 | -51.49369 | 37452 ft | 483 kts | 243° |
| 2026-05-05 05:59 | 53.10055 | -51.59689 | 37453 ft | 484 kts | 243° |
| 2026-05-05 05:59 | 53.07379 | -51.69991 | 37450 ft | 484 kts | 243° |
| 2026-05-05 06:00 | 53.04704 | -51.80242 | 37437 ft | 484 kts | 243° |
| 2026-05-05 06:00 | 53.02015 | -51.90501 | 37417 ft | 483 kts | 243° |
| 2026-05-05 06:01 | 52.99319 | -52.00745 | 37417 ft | 483 kts | 243° |
| 2026-05-05 06:01 | 52.96616 | -52.10961 | 37421 ft | 483 kts | 243° |
| 2026-05-05 06:02 | 52.93896 | -52.21199 | 37412 ft | 484 kts | 243° |
| 2026-05-05 06:02 | 52.91176 | -52.31389 | 37412 ft | 485 kts | 243° |
| 2026-05-05 06:03 | 52.88445 | -52.41580 | 37407 ft | 485 kts | 243° |
| 2026-05-05 06:03 | 52.85687 | -52.51823 | 37400 ft | 484 kts | 243° |
| 2026-05-05 06:04 | 52.82936 | -52.61997 | 37399 ft | 483 kts | 243° |
| 2026-05-05 06:04 | 52.80183 | -52.72128 | 37397 ft | 483 kts | 243° |
| 2026-05-05 06:05 | 52.77425 | -52.82235 | 37393 ft | 484 kts | 243° |
| 2026-05-05 06:05 | 52.74638 | -52.92405 | 37386 ft | 484 kts | 243° |
| 2026-05-05 06:06 | 52.71850 | -53.02534 | 37378 ft | 485 kts | 243° |
| 2026-05-05 06:06 | 52.69055 | -53.12645 | 37379 ft | 484 kts | 243° |
| 2026-05-05 06:07 | 52.66251 | -53.22746 | 37372 ft | 483 kts | 243° |
| 2026-05-05 06:07 | 52.63404 | -53.32953 | 37367 ft | 483 kts | 243° |
| 2026-05-05 06:08 | 52.60596 | -53.42976 | 37368 ft | 483 kts | 242° |
| 2026-05-05 06:08 | 52.57766 | -53.53038 | 37362 ft | 483 kts | 242° |
| 2026-05-05 06:09 | 52.54933 | -53.63066 | 37359 ft | 483 kts | 242° |
| 2026-05-05 06:09 | 52.52096 | -53.73065 | 37355 ft | 484 kts | 242° |
| 2026-05-05 06:10 | 52.49241 | -53.83085 | 37350 ft | 484 kts | 242° |
| 2026-05-05 06:10 | 52.46378 | -53.93091 | 37349 ft | 484 kts | 242° |
| 2026-05-05 06:11 | 52.43516 | -54.03050 | 37346 ft | 484 kts | 242° |
| 2026-05-05 06:11 | 52.40637 | -54.13029 | 37343 ft | 484 kts | 242° |
| 2026-05-05 06:12 | 52.37750 | -54.22990 | 37337 ft | 483 kts | 242° |
| 2026-05-05 06:12 | 52.34852 | -54.32948 | 37336 ft | 483 kts | 242° |
| 2026-05-05 06:13 | 52.32426 | -54.41252 | 37334 ft | 484 kts | 242° |
| 2026-05-05 06:13 | 52.29529 | -54.51131 | 37319 ft | 484 kts | 242° |
| 2026-05-05 06:14 | 52.26586 | -54.61127 | 37309 ft | 483 kts | 242° |
| 2026-05-05 06:14 | 52.23683 | -54.70946 | 37327 ft | 482 kts | 242° |
| 2026-05-05 06:15 | 52.20750 | -54.80826 | 37333 ft | 480 kts | 242° |
| 2026-05-05 06:15 | 52.17848 | -54.90557 | 37310 ft | 479 kts | 242° |
| 2026-05-05 06:16 | 52.14925 | -55.00325 | 37310 ft | 480 kts | 242° |
| 2026-05-05 06:16 | 52.11985 | -55.10114 | 37306 ft | 481 kts | 242° |
| 2026-05-05 06:17 | 52.09014 | -55.19951 | 37309 ft | 483 kts | 242° |
| 2026-05-05 06:17 | 52.06025 | -55.29741 | 37294 ft | 483 kts | 242° |
| 2026-05-05 06:18 | 52.03019 | -55.39536 | 37289 ft | 482 kts | 242° |
| 2026-05-05 06:18 | 52.00019 | -55.49285 | 37286 ft | 480 kts | 242° |
| 2026-05-05 06:19 | 51.97034 | -55.58955 | 37283 ft | 479 kts | 242° |
| 2026-05-05 06:19 | 51.94044 | -55.68601 | 37283 ft | 478 kts | 242° |
| 2026-05-05 06:20 | 51.91067 | -55.78166 | 37282 ft | 479 kts | 242° |
| 2026-05-05 06:20 | 51.88052 | -55.87817 | 37276 ft | 480 kts | 242° |
| 2026-05-05 06:21 | 51.85026 | -55.97463 | 37276 ft | 482 kts | 242° |
| 2026-05-05 06:21 | 51.81978 | -56.07142 | 37273 ft | 483 kts | 242° |
| 2026-05-05 06:22 | 51.78923 | -56.16805 | 37272 ft | 482 kts | 242° |
| 2026-05-05 06:22 | 51.75874 | -56.26414 | 37266 ft | 481 kts | 242° |
| 2026-05-05 06:23 | 51.72799 | -56.36064 | 37270 ft | 480 kts | 242° |
| 2026-05-05 06:23 | 51.69752 | -56.45589 | 37270 ft | 481 kts | 242° |
| 2026-05-05 06:24 | 51.66677 | -56.55162 | 37270 ft | 481 kts | 242° |
| 2026-05-05 06:24 | 51.63594 | -56.64727 | 37270 ft | 481 kts | 242° |
| 2026-05-05 06:25 | 51.60499 | -56.74290 | 37264 ft | 481 kts | 241° |
| 2026-05-05 06:25 | 51.57403 | -56.83819 | 37263 ft | 480 kts | 241° |
| 2026-05-05 06:26 | 51.54304 | -56.93321 | 37262 ft | 478 kts | 241° |
| 2026-05-05 06:26 | 51.51212 | -57.02767 | 37258 ft | 476 kts | 241° |
| 2026-05-05 06:27 | 51.46557 | -57.16914 | 37262 ft | 473 kts | 241° |
| 2026-05-05 06:28 | 51.43472 | -57.26250 | 37262 ft | 472 kts | 241° |
| 2026-05-05 06:28 | 51.40384 | -57.35558 | 37269 ft | 474 kts | 241° |
| 2026-05-05 06:29 | 51.37277 | -57.44887 | 37275 ft | 476 kts | 241° |
| 2026-05-05 06:29 | 51.34156 | -57.54224 | 37283 ft | 477 kts | 241° |
| 2026-05-05 06:30 | 51.31000 | -57.63632 | 37298 ft | 478 kts | 241° |
| 2026-05-05 06:30 | 51.27848 | -57.72993 | 37318 ft | 479 kts | 241° |
| 2026-05-05 06:31 | 51.24692 | -57.82328 | 37326 ft | 479 kts | 241° |
| 2026-05-05 06:31 | 51.21515 | -57.91694 | 37327 ft | 477 kts | 241° |
| 2026-05-05 06:32 | 51.18359 | -58.00959 | 37333 ft | 474 kts | 241° |
| 2026-05-05 06:32 | 51.15223 | -58.10133 | 37340 ft | 472 kts | 241° |
| 2026-05-05 06:33 | 51.12069 | -58.19329 | 37341 ft | 470 kts | 241° |
| 2026-05-05 06:33 | 51.08938 | -58.28424 | 37344 ft | 468 kts | 241° |
| 2026-05-05 06:34 | 51.05788 | -58.37539 | 37347 ft | 468 kts | 241° |
| 2026-05-05 06:34 | 51.02639 | -58.46620 | 37349 ft | 470 kts | 241° |
| 2026-05-05 06:35 | 50.99458 | -58.55758 | 37351 ft | 471 kts | 241° |
| 2026-05-05 06:35 | 50.96282 | -58.64853 | 37347 ft | 472 kts | 241° |
| 2026-05-05 06:36 | 50.93101 | -58.73927 | 37355 ft | 472 kts | 241° |
| 2026-05-05 06:36 | 50.89890 | -58.83052 | 37348 ft | 472 kts | 241° |
| 2026-05-05 06:37 | 50.86696 | -58.92099 | 37353 ft | 472 kts | 240° |
| 2026-05-05 06:37 | 50.83991 | -58.99737 | 37355 ft | 473 kts | 240° |
| 2026-05-05 06:38 | 50.80767 | -59.08809 | 37362 ft | 473 kts | 240° |
| 2026-05-05 06:38 | 50.77522 | -59.17906 | 37355 ft | 473 kts | 240° |
| 2026-05-05 06:39 | 50.74273 | -59.26983 | 37356 ft | 474 kts | 240° |
| 2026-05-05 06:39 | 50.71027 | -59.36018 | 37365 ft | 474 kts | 240° |
| 2026-05-05 06:40 | 50.67759 | -59.45084 | 37361 ft | 474 kts | 240° |
| 2026-05-05 06:40 | 50.64503 | -59.54086 | 37363 ft | 473 kts | 240° |
| 2026-05-05 06:41 | 50.61231 | -59.63098 | 37369 ft | 472 kts | 240° |
| 2026-05-05 06:41 | 50.57958 | -59.72081 | 37376 ft | 471 kts | 240° |
| 2026-05-05 06:42 | 50.54701 | -59.80992 | 37383 ft | 471 kts | 240° |
| 2026-05-05 06:42 | 50.51419 | -59.89937 | 37391 ft | 471 kts | 240° |
| 2026-05-05 06:43 | 50.48109 | -59.98928 | 37401 ft | 471 kts | 240° |
| 2026-05-05 06:43 | 50.44814 | -60.07847 | 37411 ft | 471 kts | 240° |
| 2026-05-05 06:44 | 50.41513 | -60.16752 | 37420 ft | 472 kts | 240° |
| 2026-05-05 06:44 | 50.38209 | -60.25637 | 37429 ft | 472 kts | 240° |
| 2026-05-05 06:45 | 50.34889 | -60.34529 | 37433 ft | 472 kts | 240° |
| 2026-05-05 06:45 | 50.31562 | -60.43413 | 37447 ft | 471 kts | 240° |
| 2026-05-05 06:46 | 50.28247 | -60.52232 | 37454 ft | 470 kts | 240° |
| 2026-05-05 06:46 | 50.24938 | -60.61008 | 37465 ft | 470 kts | 240° |
| 2026-05-05 06:47 | 50.21595 | -60.69843 | 37475 ft | 470 kts | 240° |
| 2026-05-05 06:47 | 50.18251 | -60.78650 | 37485 ft | 470 kts | 240° |
| 2026-05-05 06:48 | 50.14909 | -60.87422 | 37494 ft | 470 kts | 240° |
| 2026-05-05 06:48 | 50.11572 | -60.96151 | 37499 ft | 469 kts | 240° |
| 2026-05-05 06:49 | 50.08227 | -61.04873 | 37507 ft | 468 kts | 240° |
| 2026-05-05 06:49 | 50.04887 | -61.13552 | 37511 ft | 467 kts | 240° |
| 2026-05-05 06:50 | 50.01538 | -61.22226 | 37515 ft | 466 kts | 240° |
| 2026-05-05 06:50 | 49.98204 | -61.30833 | 37525 ft | 465 kts | 240° |
| 2026-05-05 06:51 | 49.94849 | -61.39465 | 37527 ft | 466 kts | 240° |
| 2026-05-05 06:51 | 49.91480 | -61.48105 | 37527 ft | 466 kts | 240° |
| 2026-05-05 06:52 | 49.88107 | -61.56727 | 37532 ft | 466 kts | 240° |
| 2026-05-05 06:52 | 49.84762 | -61.65249 | 37538 ft | 465 kts | 239° |
| 2026-05-05 06:53 | 49.81389 | -61.73813 | 37547 ft | 465 kts | 240° |
| 2026-05-05 06:53 | 49.77989 | -61.82419 | 37551 ft | 466 kts | 239° |
| 2026-05-05 06:54 | 49.74617 | -61.90927 | 37559 ft | 467 kts | 239° |
| 2026-05-05 06:54 | 49.71198 | -61.99526 | 37562 ft | 468 kts | 239° |
| 2026-05-05 06:55 | 49.67769 | -62.08120 | 37568 ft | 469 kts | 239° |
| 2026-05-05 06:55 | 49.64327 | -62.16717 | 37570 ft | 470 kts | 239° |
| 2026-05-05 06:56 | 49.60886 | -62.25286 | 37576 ft | 470 kts | 239° |
| 2026-05-05 06:56 | 49.57439 | -62.33842 | 37582 ft | 469 kts | 239° |
| 2026-05-05 06:57 | 49.53998 | -62.42355 | 37592 ft | 468 kts | 239° |
| 2026-05-05 06:57 | 49.50533 | -62.50899 | 37604 ft | 468 kts | 239° |
| 2026-05-05 06:58 | 49.47086 | -62.59374 | 37602 ft | 469 kts | 239° |
| 2026-05-05 06:58 | 49.43621 | -62.67863 | 37612 ft | 468 kts | 239° |
| 2026-05-05 06:59 | 49.40136 | -62.76375 | 37619 ft | 468 kts | 239° |
| 2026-05-05 06:59 | 49.36681 | -62.84788 | 37625 ft | 468 kts | 239° |
| 2026-05-05 07:00 | 49.33209 | -62.93213 | 37625 ft | 468 kts | 239° |
| 2026-05-05 07:00 | 49.29715 | -63.01666 | 37632 ft | 468 kts | 239° |
| 2026-05-05 07:01 | 49.26223 | -63.10087 | 37642 ft | 468 kts | 239° |
| 2026-05-05 07:01 | 49.22730 | -63.18484 | 37636 ft | 468 kts | 239° |
| 2026-05-05 07:02 | 49.19816 | -63.25469 | 37644 ft | 467 kts | 239° |
| 2026-05-05 07:02 | 49.16294 | -63.33887 | 37649 ft | 468 kts | 239° |
| 2026-05-05 07:03 | 49.12745 | -63.42344 | 37646 ft | 468 kts | 239° |
| 2026-05-05 07:03 | 49.09230 | -63.50692 | 37651 ft | 468 kts | 239° |
| 2026-05-05 07:04 | 49.05713 | -63.59019 | 37650 ft | 467 kts | 239° |
| 2026-05-05 07:04 | 49.02185 | -63.67344 | 37651 ft | 466 kts | 239° |
| 2026-05-05 07:05 | 48.98657 | -63.75645 | 37670 ft | 466 kts | 239° |
| 2026-05-05 07:05 | 48.95130 | -63.83920 | 37673 ft | 466 kts | 239° |
| 2026-05-05 07:06 | 48.91595 | -63.92184 | 37666 ft | 466 kts | 239° |
| 2026-05-05 07:06 | 48.88074 | -64.00393 | 37674 ft | 465 kts | 239° |
| 2026-05-05 07:07 | 48.84514 | -64.08667 | 37673 ft | 464 kts | 239° |
| 2026-05-05 07:07 | 48.80970 | -64.16879 | 37672 ft | 464 kts | 239° |
| 2026-05-05 07:08 | 48.77426 | -64.25064 | 37672 ft | 464 kts | 238° |
| 2026-05-05 07:08 | 48.73841 | -64.33320 | 37672 ft | 464 kts | 238° |
| 2026-05-05 07:09 | 48.70293 | -64.41467 | 37671 ft | 464 kts | 238° |
| 2026-05-05 07:09 | 48.66696 | -64.49700 | 37682 ft | 464 kts | 238° |
| 2026-05-05 07:10 | 48.63152 | -64.57789 | 37674 ft | 464 kts | 238° |
| 2026-05-05 07:10 | 48.59559 | -64.65961 | 37681 ft | 463 kts | 238° |
| 2026-05-05 07:11 | 48.55985 | -64.74069 | 37690 ft | 463 kts | 238° |
| 2026-05-05 07:11 | 48.52411 | -64.82151 | 37708 ft | 462 kts | 238° |
| 2026-05-05 07:12 | 48.48870 | -64.90133 | 37715 ft | 462 kts | 238° |
| 2026-05-05 07:12 | 48.45276 | -64.98212 | 37722 ft | 461 kts | 238° |
| 2026-05-05 07:13 | 48.41656 | -65.06326 | 37727 ft | 460 kts | 238° |
| 2026-05-05 07:13 | 48.38076 | -65.14325 | 37726 ft | 460 kts | 238° |
| 2026-05-05 07:14 | 48.34459 | -65.22381 | 37733 ft | 460 kts | 238° |
| 2026-05-05 07:14 | 48.30835 | -65.30434 | 37727 ft | 459 kts | 238° |
| 2026-05-05 07:15 | 48.27258 | -65.38354 | 37731 ft | 459 kts | 238° |
| 2026-05-05 07:15 | 48.23664 | -65.46288 | 37735 ft | 458 kts | 238° |
| 2026-05-05 07:16 | 48.20057 | -65.54234 | 37736 ft | 458 kts | 238° |
| 2026-05-05 07:16 | 48.16468 | -65.62116 | 37742 ft | 458 kts | 238° |
| 2026-05-05 07:17 | 48.12832 | -65.70074 | 37752 ft | 458 kts | 238° |
| 2026-05-05 07:17 | 48.09814 | -65.76662 | 37744 ft | 457 kts | 238° |
| 2026-05-05 07:18 | 48.06199 | -65.84533 | 37752 ft | 457 kts | 238° |
| 2026-05-05 07:18 | 48.03079 | -65.91308 | 37757 ft | 456 kts | 238° |
| 2026-05-05 07:19 | 47.99469 | -65.99128 | 37756 ft | 456 kts | 238° |
| 2026-05-05 07:19 | 47.95855 | -66.06933 | 37750 ft | 457 kts | 238° |
| 2026-05-05 07:20 | 47.92234 | -66.14730 | 37753 ft | 456 kts | 238° |
| 2026-05-05 07:20 | 47.88607 | -66.22519 | 37766 ft | 455 kts | 238° |
| 2026-05-05 07:21 | 47.84978 | -66.30289 | 37765 ft | 455 kts | 238° |
| 2026-05-05 07:21 | 47.81359 | -66.38017 | 37763 ft | 455 kts | 238° |
| 2026-05-05 07:22 | 47.77720 | -66.45766 | 37763 ft | 455 kts | 238° |
| 2026-05-05 07:22 | 47.74054 | -66.53547 | 37772 ft | 455 kts | 238° |
| 2026-05-05 07:23 | 47.70424 | -66.61235 | 37773 ft | 455 kts | 238° |
| 2026-05-05 07:23 | 47.66998 | -66.68467 | 37772 ft | 455 kts | 238° |
| 2026-05-05 07:24 | 47.63366 | -66.76116 | 38107 ft | 457 kts | 237° |
| 2026-05-05 07:24 | 47.61536 | -66.79963 | 38470 ft | 456 kts | 237° |
| 2026-05-05 07:24 | 47.59730 | -66.83752 | 38759 ft | 455 kts | 237° |
| 2026-05-05 07:24 | 47.57871 | -66.87647 | 39008 ft | 455 kts | 237° |
| 2026-05-05 07:25 | 47.55988 | -66.91589 | 39241 ft | 455 kts | 237° |
| 2026-05-05 07:25 | 47.54165 | -66.95398 | 39475 ft | 456 kts | 237° |
| 2026-05-05 07:25 | 47.52331 | -66.99224 | 39695 ft | 456 kts | 237° |
| 2026-05-05 07:26 | 47.48674 | -67.06839 | 39767 ft | 451 kts | 237° |
| 2026-05-05 07:26 | 47.45053 | -67.14359 | 39783 ft | 447 kts | 237° |
| 2026-05-05 07:27 | 47.41428 | -67.21871 | 39795 ft | 443 kts | 237° |
| 2026-05-05 07:27 | 47.37828 | -67.29272 | 39800 ft | 444 kts | 235° |
| 2026-05-05 07:28 | 47.33708 | -67.35999 | 39810 ft | 447 kts | 228° |
| 2026-05-05 07:28 | 47.29292 | -67.42652 | 39799 ft | 447 kts | 229° |
| 2026-05-05 07:29 | 47.24959 | -67.49219 | 39804 ft | 446 kts | 229° |
| 2026-05-05 07:29 | 47.20611 | -67.55820 | 39805 ft | 445 kts | 229° |
| 2026-05-05 07:30 | 47.16302 | -67.62352 | 39805 ft | 445 kts | 229° |
| 2026-05-05 07:30 | 47.09800 | -67.72177 | 39796 ft | 444 kts | 229° |
| 2026-05-05 07:31 | 47.05458 | -67.78718 | 39793 ft | 444 kts | 229° |
| 2026-05-05 07:31 | 47.01847 | -67.84144 | 39785 ft | 444 kts | 229° |
| 2026-05-05 07:32 | 46.97474 | -67.90700 | 39779 ft | 444 kts | 229° |
| 2026-05-05 07:32 | 46.93111 | -67.97226 | 39778 ft | 445 kts | 229° |
| 2026-05-05 07:33 | 46.88742 | -68.03743 | 39773 ft | 445 kts | 229° |
| 2026-05-05 07:33 | 46.84394 | -68.10212 | 39770 ft | 445 kts | 229° |
| 2026-05-05 07:34 | 46.80042 | -68.16674 | 39785 ft | 445 kts | 229° |
| 2026-05-05 07:34 | 46.75665 | -68.23155 | 39815 ft | 446 kts | 229° |
| 2026-05-05 07:35 | 46.71252 | -68.29674 | 39815 ft | 446 kts | 229° |
| 2026-05-05 07:35 | 46.66883 | -68.36112 | 39810 ft | 446 kts | 229° |
| 2026-05-05 07:36 | 46.62792 | -68.42125 | 39810 ft | 446 kts | 229° |
| 2026-05-05 07:36 | 46.58391 | -68.48580 | 39800 ft | 445 kts | 229° |
| 2026-05-05 07:37 | 46.53969 | -68.55049 | 39796 ft | 445 kts | 229° |
| 2026-05-05 07:37 | 46.50275 | -68.60442 | 39802 ft | 446 kts | 229° |
| 2026-05-05 07:38 | 46.45712 | -68.67088 | 39800 ft | 446 kts | 229° |
| 2026-05-05 07:38 | 46.41367 | -68.73399 | 39801 ft | 446 kts | 229° |
| 2026-05-05 07:39 | 46.37836 | -68.78517 | 39799 ft | 445 kts | 229° |
| 2026-05-05 07:39 | 46.33321 | -68.85048 | 39805 ft | 445 kts | 229° |
| 2026-05-05 07:40 | 46.30947 | -68.88476 | 39808 ft | 445 kts | 229° |
| 2026-05-05 07:40 | 46.26531 | -68.94841 | 39825 ft | 445 kts | 229° |
| 2026-05-05 07:41 | 46.22228 | -69.01027 | 39802 ft | 446 kts | 229° |
| 2026-05-05 07:41 | 46.17841 | -69.07318 | 39802 ft | 446 kts | 229° |
| 2026-05-05 07:42 | 46.14288 | -69.12402 | 39814 ft | 445 kts | 229° |
| 2026-05-05 07:42 | 46.09866 | -69.18719 | 39814 ft | 445 kts | 229° |
| 2026-05-05 07:43 | 46.05552 | -69.24865 | 39804 ft | 445 kts | 229° |
| 2026-05-05 07:43 | 46.01058 | -69.31252 | 39802 ft | 445 kts | 229° |
| 2026-05-05 07:44 | 45.96663 | -69.37483 | 39802 ft | 445 kts | 229° |
| 2026-05-05 07:44 | 45.92191 | -69.43810 | 39803 ft | 446 kts | 229° |
| 2026-05-05 07:45 | 45.87741 | -69.50091 | 39800 ft | 446 kts | 229° |
| 2026-05-05 07:45 | 45.83390 | -69.56216 | 39799 ft | 446 kts | 229° |
| 2026-05-05 07:46 | 45.78868 | -69.62568 | 39790 ft | 447 kts | 229° |
| 2026-05-05 07:46 | 45.74320 | -69.68939 | 39796 ft | 447 kts | 229° |
| 2026-05-05 07:47 | 45.69875 | -69.75154 | 39797 ft | 447 kts | 229° |
| 2026-05-05 07:47 | 45.65403 | -69.81391 | 39804 ft | 447 kts | 229° |
| 2026-05-05 07:48 | 45.60927 | -69.87617 | 39793 ft | 447 kts | 229° |
| 2026-05-05 07:48 | 45.56376 | -69.93934 | 39802 ft | 446 kts | 229° |
| 2026-05-05 07:49 | 45.51881 | -70.00157 | 39804 ft | 446 kts | 229° |
| 2026-05-05 07:49 | 45.47411 | -70.06333 | 39802 ft | 446 kts | 229° |
| 2026-05-05 07:50 | 45.42913 | -70.12533 | 39806 ft | 445 kts | 229° |
| 2026-05-05 07:50 | 45.38460 | -70.18656 | 39801 ft | 445 kts | 228° |
| 2026-05-05 07:51 | 45.34761 | -70.23732 | 39802 ft | 445 kts | 228° |
| 2026-05-05 07:51 | 45.30276 | -70.29873 | 39807 ft | 445 kts | 228° |
| 2026-05-05 07:52 | 45.25814 | -70.35969 | 39810 ft | 445 kts | 228° |
| 2026-05-05 07:52 | 45.21343 | -70.42063 | 39809 ft | 444 kts | 228° |
| 2026-05-05 07:53 | 45.16814 | -70.48222 | 39811 ft | 444 kts | 228° |
| 2026-05-05 07:53 | 45.12325 | -70.54312 | 39826 ft | 444 kts | 228° |
| 2026-05-05 07:54 | 45.07847 | -70.60374 | 39823 ft | 444 kts | 228° |
| 2026-05-05 07:54 | 45.03350 | -70.66447 | 39822 ft | 444 kts | 228° |
| 2026-05-05 07:55 | 44.98857 | -70.72502 | 39831 ft | 444 kts | 228° |
| 2026-05-05 07:55 | 44.94313 | -70.78609 | 39837 ft | 444 kts | 228° |
| 2026-05-05 07:56 | 44.89823 | -70.84631 | 39833 ft | 444 kts | 228° |
| 2026-05-05 07:56 | 44.85307 | -70.90676 | 39843 ft | 444 kts | 228° |
| 2026-05-05 07:57 | 44.80826 | -70.96659 | 39839 ft | 444 kts | 228° |
| 2026-05-05 07:57 | 44.76284 | -71.02711 | 39837 ft | 443 kts | 228° |
| 2026-05-05 07:58 | 44.71948 | -71.08474 | 39822 ft | 443 kts | 228° |
| 2026-05-05 07:58 | 44.67459 | -71.14428 | 39821 ft | 443 kts | 228° |
| 2026-05-05 07:59 | 44.62928 | -71.20425 | 39826 ft | 442 kts | 228° |
| 2026-05-05 07:59 | 44.58453 | -71.26332 | 39822 ft | 442 kts | 228° |
| 2026-05-05 08:00 | 44.54711 | -71.31264 | 39824 ft | 442 kts | 228° |
| 2026-05-05 08:00 | 44.50159 | -71.37249 | 39824 ft | 442 kts | 227° |
| 2026-05-05 08:01 | 44.45604 | -71.43226 | 39828 ft | 442 kts | 227° |
| 2026-05-05 08:01 | 44.41092 | -71.49134 | 39827 ft | 442 kts | 227° |
| 2026-05-05 08:02 | 44.36579 | -71.55029 | 39820 ft | 441 kts | 227° |
| 2026-05-05 08:02 | 44.32068 | -71.60910 | 39822 ft | 441 kts | 227° |
| 2026-05-05 08:03 | 44.27570 | -71.66765 | 39825 ft | 441 kts | 227° |
| 2026-05-05 08:03 | 44.23071 | -71.72607 | 39823 ft | 441 kts | 228° |
| 2026-05-05 08:04 | 44.19058 | -71.78992 | 39814 ft | 434 kts | 238° |
| 2026-05-05 08:04 | 44.15476 | -71.85899 | 39823 ft | 435 kts | 237° |
| 2026-05-05 08:05 | 44.11894 | -71.92674 | 39816 ft | 435 kts | 237° |
| 2026-05-05 08:05 | 44.08258 | -71.99512 | 39811 ft | 434 kts | 237° |
| 2026-05-05 08:06 | 44.04627 | -72.06326 | 39817 ft | 434 kts | 237° |
| 2026-05-05 08:06 | 44.00963 | -72.13192 | 39812 ft | 433 kts | 237° |
| 2026-05-05 08:07 | 43.97327 | -72.19989 | 39813 ft | 434 kts | 237° |
| 2026-05-05 08:07 | 43.93724 | -72.26711 | 39822 ft | 434 kts | 237° |
| 2026-05-05 08:08 | 43.90089 | -72.33473 | 39821 ft | 434 kts | 237° |
| 2026-05-05 08:08 | 43.87034 | -72.39146 | 39823 ft | 433 kts | 237° |
| 2026-05-05 08:09 | 43.83382 | -72.45913 | 39835 ft | 433 kts | 237° |
| 2026-05-05 08:09 | 43.79664 | -72.52785 | 39814 ft | 433 kts | 237° |
| 2026-05-05 08:10 | 43.76017 | -72.59512 | 39826 ft | 433 kts | 236° |
| 2026-05-05 08:10 | 43.72358 | -72.66245 | 39822 ft | 433 kts | 236° |
| 2026-05-05 08:11 | 43.68744 | -72.72879 | 39819 ft | 433 kts | 236° |
| 2026-05-05 08:11 | 43.65085 | -72.79582 | 39813 ft | 433 kts | 236° |
| 2026-05-05 08:12 | 43.61397 | -72.86322 | 39820 ft | 433 kts | 236° |
| 2026-05-05 08:12 | 43.57731 | -72.93006 | 39815 ft | 433 kts | 236° |
| 2026-05-05 08:13 | 43.54063 | -72.99679 | 39809 ft | 433 kts | 236° |
| 2026-05-05 08:13 | 43.50382 | -73.06359 | 39811 ft | 433 kts | 236° |
| 2026-05-05 08:14 | 43.46651 | -73.13117 | 39812 ft | 433 kts | 236° |
| 2026-05-05 08:14 | 43.43619 | -73.18597 | 39807 ft | 434 kts | 236° |
| 2026-05-05 08:15 | 43.39926 | -73.25256 | 39805 ft | 433 kts | 236° |
| 2026-05-05 08:15 | 43.36231 | -73.31906 | 39808 ft | 433 kts | 236° |
| 2026-05-05 08:16 | 43.32551 | -73.38514 | 39817 ft | 433 kts | 236° |
| 2026-05-05 08:16 | 43.28844 | -73.45155 | 39816 ft | 434 kts | 236° |
| 2026-05-05 08:17 | 43.25172 | -73.51722 | 39813 ft | 433 kts | 236° |
| 2026-05-05 08:17 | 43.21404 | -73.58056 | 39802 ft | 438 kts | 226° |
| 2026-05-05 08:18 | 43.16205 | -73.62788 | 39805 ft | 449 kts | 210° |
| 2026-05-05 08:18 | 43.10193 | -73.65504 | 39805 ft | 455 kts | 201° |
| 2026-05-05 08:19 | 43.03895 | -73.68062 | 39819 ft | 455 kts | 202° |
| 2026-05-05 08:19 | 42.97704 | -73.70646 | 39812 ft | 455 kts | 202° |
| 2026-05-05 08:20 | 42.92544 | -73.72823 | 39813 ft | 455 kts | 202° |
| 2026-05-05 08:20 | 42.86487 | -73.75378 | 39817 ft | 455 kts | 202° |
| 2026-05-05 08:21 | 42.80297 | -73.77981 | 39821 ft | 456 kts | 202° |
| 2026-05-05 08:21 | 42.74112 | -73.80578 | 39819 ft | 457 kts | 202° |
| 2026-05-05 08:22 | 42.67996 | -73.83290 | 39819 ft | 456 kts | 203° |
| 2026-05-05 08:22 | 42.62128 | -73.85210 | 39581 ft | 459 kts | 192° |
| 2026-05-05 08:23 | 42.58894 | -73.85728 | 39096 ft | 457 kts | 192° |
| 2026-05-05 08:23 | 42.55717 | -73.86262 | 38418 ft | 458 kts | 193° |
| 2026-05-05 08:23 | 42.52549 | -73.86820 | 37437 ft | 462 kts | 193° |
| 2026-05-05 08:23 | 42.49332 | -73.87403 | 36480 ft | 466 kts | 193° |
| 2026-05-05 08:24 | 42.46102 | -73.87995 | 35549 ft | 469 kts | 192° |
| 2026-05-05 08:24 | 42.42821 | -73.88598 | 34658 ft | 471 kts | 192° |
| 2026-05-05 08:24 | 42.39577 | -73.89191 | 33799 ft | 473 kts | 192° |
| 2026-05-05 08:24 | 42.36186 | -73.89808 | 33059 ft | 469 kts | 192° |
| 2026-05-05 08:25 | 42.33099 | -73.90366 | 32583 ft | 461 kts | 192° |
| 2026-05-05 08:25 | 42.29938 | -73.90936 | 32093 ft | 454 kts | 192° |
| 2026-05-05 08:25 | 42.27880 | -73.91307 | 31739 ft | 451 kts | 192° |
| 2026-05-05 08:25 | 42.24707 | -73.91881 | 31139 ft | 447 kts | 192° |
| 2026-05-05 08:26 | 42.21591 | -73.92445 | 30534 ft | 443 kts | 192° |
| 2026-05-05 08:26 | 42.18504 | -73.93006 | 29973 ft | 439 kts | 192° |
| 2026-05-05 08:26 | 42.15440 | -73.93562 | 29349 ft | 435 kts | 192° |
| 2026-05-05 08:26 | 42.12371 | -73.94118 | 28725 ft | 431 kts | 192° |
| 2026-05-05 08:27 | 42.09436 | -73.94648 | 28149 ft | 426 kts | 191° |
| 2026-05-05 08:27 | 42.06489 | -73.95179 | 27574 ft | 422 kts | 191° |
| 2026-05-05 08:27 | 42.03577 | -73.95704 | 27003 ft | 419 kts | 191° |
| 2026-05-05 08:27 | 42.00714 | -73.96219 | 26428 ft | 415 kts | 191° |
| 2026-05-05 08:28 | 41.97835 | -73.96737 | 25885 ft | 412 kts | 191° |
| 2026-05-05 08:28 | 41.94965 | -73.97253 | 25349 ft | 409 kts | 191° |
| 2026-05-05 08:28 | 41.92168 | -73.97756 | 24842 ft | 406 kts | 191° |
| 2026-05-05 08:28 | 41.89382 | -73.98256 | 24340 ft | 402 kts | 191° |
| 2026-05-05 08:29 | 41.86590 | -73.98757 | 23845 ft | 399 kts | 191° |
| 2026-05-05 08:29 | 41.83845 | -73.99249 | 23335 ft | 397 kts | 191° |
| 2026-05-05 08:29 | 41.81071 | -73.99745 | 22792 ft | 393 kts | 191° |
| 2026-05-05 08:30 | 41.75675 | -74.00708 | 21836 ft | 384 kts | 191° |
| 2026-05-05 08:30 | 41.73008 | -74.01183 | 21360 ft | 379 kts | 191° |
| 2026-05-05 08:30 | 41.70355 | -74.01656 | 20865 ft | 376 kts | 191° |
| 2026-05-05 08:30 | 41.67783 | -74.02115 | 20401 ft | 372 kts | 191° |
| 2026-05-05 08:31 | 41.65193 | -74.02577 | 19944 ft | 368 kts | 191° |
| 2026-05-05 08:31 | 41.62652 | -74.03028 | 19503 ft | 364 kts | 191° |
| 2026-05-05 08:31 | 41.60155 | -74.03472 | 19057 ft | 361 kts | 191° |
| 2026-05-05 08:31 | 41.57645 | -74.03918 | 18642 ft | 357 kts | 191° |
| 2026-05-05 08:32 | 41.55125 | -74.04365 | 18200 ft | 354 kts | 191° |
| 2026-05-05 08:32 | 41.52707 | -74.04794 | 17698 ft | 351 kts | 191° |
| 2026-05-05 08:32 | 41.50294 | -74.05222 | 17181 ft | 349 kts | 192° |
| 2026-05-05 08:32 | 41.48618 | -74.05520 | 16800 ft | 348 kts | 191° |
| 2026-05-05 08:33 | 41.46224 | -74.05944 | 16287 ft | 346 kts | 191° |
| 2026-05-05 08:33 | 41.43835 | -74.06367 | 15780 ft | 344 kts | 191° |
| 2026-05-05 08:33 | 41.41424 | -74.06793 | 15282 ft | 343 kts | 191° |
| 2026-05-05 08:33 | 41.39039 | -74.07215 | 14778 ft | 341 kts | 191° |
| 2026-05-05 08:34 | 41.36696 | -74.07629 | 14298 ft | 340 kts | 191° |
| 2026-05-05 08:34 | 41.34371 | -74.08038 | 14105 ft | 330 kts | 191° |
| 2026-05-05 08:34 | 41.32102 | -74.08432 | 14012 ft | 312 kts | 192° |
| 2026-05-05 08:34 | 41.30031 | -74.08789 | 13679 ft | 289 kts | 192° |
| 2026-05-05 08:35 | 41.28074 | -74.09131 | 13024 ft | 278 kts | 192° |
| 2026-05-05 08:35 | 41.26137 | -74.09474 | 12253 ft | 275 kts | 192° |
| 2026-05-05 08:35 | 41.24244 | -74.09810 | 11460 ft | 273 kts | 193° |
| 2026-05-05 08:35 | 41.22429 | -74.10133 | 10713 ft | 271 kts | 193° |
| 2026-05-05 08:36 | 41.20502 | -74.10473 | 9956 ft | 268 kts | 193° |
| 2026-05-05 08:36 | 41.18627 | -74.10803 | 9167 ft | 266 kts | 193° |
| 2026-05-05 08:36 | 41.16799 | -74.11123 | 8417 ft | 263 kts | 193° |
| 2026-05-05 08:36 | 41.14989 | -74.11439 | 7682 ft | 260 kts | 194° |
| 2026-05-05 08:37 | 41.13164 | -74.11760 | 6947 ft | 258 kts | 194° |
| 2026-05-05 08:37 | 41.11410 | -74.12068 | 6267 ft | 254 kts | 194° |
| 2026-05-05 08:37 | 41.09617 | -74.12383 | 5535 ft | 252 kts | 194° |
| 2026-05-05 08:37 | 41.07894 | -74.12686 | 4847 ft | 249 kts | 194° |
| 2026-05-05 08:38 | 41.06156 | -74.12986 | 4456 ft | 234 kts | 194° |
| 2026-05-05 08:38 | 41.04583 | -74.13258 | 4475 ft | 229 kts | 195° |
| 2026-05-05 08:38 | 41.02958 | -74.13552 | 4510 ft | 244 kts | 194° |
| 2026-05-05 08:38 | 41.01219 | -74.13861 | 4518 ft | 256 kts | 194° |
| 2026-05-05 08:39 | 40.99454 | -74.14167 | 4526 ft | 253 kts | 194° |
| 2026-05-05 08:39 | 40.97699 | -74.14470 | 4516 ft | 250 kts | 194° |
| 2026-05-05 08:39 | 40.96017 | -74.14759 | 4488 ft | 239 kts | 194° |
| 2026-05-05 08:39 | 40.94382 | -74.14965 | 4325 ft | 232 kts | 183° |
| 2026-05-05 08:40 | 40.92865 | -74.14238 | 4131 ft | 238 kts | 154° |
| 2026-05-05 08:40 | 40.91500 | -74.13097 | 3806 ft | 241 kts | 156° |
| 2026-05-05 08:40 | 40.90096 | -74.12050 | 3648 ft | 235 kts | 158° |
| 2026-05-05 08:40 | 40.88635 | -74.10972 | 3522 ft | 231 kts | 158° |
| 2026-05-05 08:41 | 40.87228 | -74.09929 | 3429 ft | 231 kts | 157° |
| 2026-05-05 08:41 | 40.85885 | -74.08932 | 3333 ft | 232 kts | 157° |
| 2026-05-05 08:41 | 40.84950 | -74.08248 | 3171 ft | 233 kts | 160° |
| 2026-05-05 08:41 | 40.83469 | -74.07790 | 2889 ft | 204 kts | 193° |
| 2026-05-05 08:42 | 40.82200 | -74.08320 | 2689 ft | 183 kts | 209° |
| 2026-05-05 08:42 | 40.81020 | -74.08988 | 2429 ft | 176 kts | 211° |
| 2026-05-05 08:42 | 40.79964 | -74.09639 | 2205 ft | 161 kts | 212° |
| 2026-05-05 08:42 | 40.79011 | -74.10246 | 2018 ft | 148 kts | 213° |
| 2026-05-05 08:43 | 40.78058 | -74.10857 | 1829 ft | 147 kts | 212° |
| 2026-05-05 08:43 | 40.77163 | -74.11429 | 1635 ft | 143 kts | 212° |
| 2026-05-05 08:43 | 40.76267 | -74.12002 | 1445 ft | 144 kts | 211° |
| 2026-05-05 08:43 | 40.75338 | -74.12596 | 1229 ft | 145 kts | 210° |
| 2026-05-05 08:44 | 40.74414 | -74.13185 | 1049 ft | 148 kts | 210° |
| 2026-05-05 08:44 | 40.73516 | -74.13756 | 808 ft | 138 kts | 208° |
| 2026-05-05 08:44 | 40.72643 | -74.14334 | 543 ft | 138 kts | 207° |
| 2026-05-05 08:44 | 40.71783 | -74.14898 | 377 ft | 136 kts | 206° |
| 2026-05-05 08:45 | 40.70917 | -74.15417 | 219 ft | 139 kts | 206° |
| 2026-05-05 08:45 | 40.70032 | -74.15976 | 62 ft | 137 kts | 207° |
| 2026-05-05 08:45 | 40.69178 | -74.16512 | 33 ft | 127 kts | 206° |
| 2026-05-05 08:45 | 40.68476 | -74.16971 | 25 ft | 88 kts | 207° |
| 2026-05-05 08:46 | 40.68134 | -74.17189 | 28 ft | 22 kts | 205° |
| 2026-05-05 08:46 | 40.68052 | -74.17251 | 26 ft | 14 kts | 213° |
| 2026-05-05 08:46 | 40.67982 | -74.17340 | 22 ft | 14 kts | 237° |
| 2026-05-05 08:46 | 40.67956 | -74.17457 | 24 ft | 14 kts | 270° |
| 2026-05-05 08:47 | 40.67968 | -74.17589 | 20 ft | 15 kts | 288° |
| 2026-05-05 08:47 | 40.68013 | -74.17712 | 23 ft | 13 kts | 298° |
| 2026-05-05 08:47 | 40.68096 | -74.17746 | 25 ft | 13 kts | 8° |
| 2026-05-05 08:47 | 40.68183 | -74.17694 | 28 ft | 14 kts | 26° |
| 2026-05-05 08:48 | 40.68278 | -74.17634 | 28 ft | 16 kts | 25° |
| 2026-05-05 08:48 | 40.68376 | -74.17573 | 26 ft | 16 kts | 25° |
| 2026-05-05 08:48 | 40.68475 | -74.17511 | 27 ft | 16 kts | 25° |
| 2026-05-05 08:48 | 40.68554 | -74.17460 | 28 ft | 0 kts | 26° |
| 2026-05-05 08:49 | 40.68570 | -74.17450 | 29 ft | 10 kts | 26° |
| 2026-05-05 08:49 | 40.68664 | -74.17390 | 30 ft | 16 kts | 26° |
| 2026-05-05 08:50 | 40.68775 | -74.17319 | 27 ft | 19 kts | 26° |
| 2026-05-05 08:50 | 40.68862 | -74.17268 | 30 ft | 6 kts | 2° |
| 2026-05-05 08:50 | 40.68901 | -74.17308 | 26 ft | 9 kts | 318° |
| 2026-05-05 08:50 | 40.68957 | -74.17315 | 27 ft | 9 kts | 15° |
| 2026-05-05 08:51 | 40.69014 | -74.17300 | 25 ft | 6 kts | 337° |
| 2026-05-05 08:51 | 40.69040 | -74.17354 | 27 ft | 7 kts | 301° |
| 2026-05-05 08:51 | 40.69043 | -74.17408 | 26 ft | 6 kts | 260° |
| 2026-05-05 08:51 | 40.69037 | -74.17457 | 29 ft | 2 kts | 261° |
| 2026-05-05 08:52 | 40.69034 | -74.17482 | 27 ft | 2 kts | 262° |
| 2026-05-05 08:52 | 40.69033 | -74.17489 | 27 ft | 0 kts | 262° |